<?xml version="1.0" encoding="UTF-8" standalone="yes"?>
<gpx
 version="1.1"
 creator="Generated by MapOut iPhone App. See https://mapout.app"
 xmlns="http://www.topografix.com/GPX/1/1"
 xmlns:xsi="http://www.w3.org/2001/XMLSchema-instance"
 xmlns:gpxx="http://www.garmin.com/xmlschemas/GpxExtensions/v3"
 xmlns:mapout="https://mapout.app/xmlschemas/MapOutExtensions"
 xsi:schemaLocation="http://www.topografix.com/GPX/1/1 https://www.topografix.com/GPX/1/1/gpx.xsd http://www.garmin.com/xmlschemas/GpxExtensions/v3 https://www8.garmin.com/xmlschemas/GpxExtensionsv3.xsd https://mapout.app/xmlschemas/MapOutExtensions https://mapout.app/xmlschemas/MapOutExtensions.xsd">
  <metadata>
    <name>HTR Distans 24k 2025</name>
    <desc></desc>
    <author><name>iPhone</name></author>
    <time>2025-07-12T05:07:38Z</time>
    <bounds minlat="62.58195912753295" minlon="12.18385211827001" maxlat="62.62652229416455" maxlon="12.30659669519972"/>
  </metadata>
  <trk>
    <name>HTR Distans 24k 2025</name>
    <desc></desc>
    <extensions>
      <gpxx:TrackExtension>
        <gpxx:DisplayColor>DarkCyan</gpxx:DisplayColor>
      </gpxx:TrackExtension>
      <mapout:extension>
        <mapout:color>0592F6</mapout:color>
      </mapout:extension>
    </extensions>
    <trkseg>
      <trkpt lat="62.59558806666065" lon="12.18392657104269">
        <ele>814</ele>
        <time>2025-07-12T05:07:38.998Z</time>
      </trkpt>
      <trkpt lat="62.59538413567068" lon="12.18458629502781">
        <ele>816</ele>
        <time>2025-07-12T05:08:13.999Z</time>
      </trkpt>
      <trkpt lat="62.59535463227065" lon="12.18478336998508">
        <ele>817</ele>
        <time>2025-07-12T05:08:20.999Z</time>
      </trkpt>
      <trkpt lat="62.59512408879178" lon="12.18513614786207">
        <ele>817</ele>
        <time>2025-07-12T05:08:42.999Z</time>
      </trkpt>
      <trkpt lat="62.59504888652365" lon="12.18537334788512">
        <ele>817</ele>
        <time>2025-07-12T05:08:53.999Z</time>
      </trkpt>
      <trkpt lat="62.59506571022836" lon="12.18568875309852">
        <ele>819</ele>
        <time>2025-07-12T05:09:03.999Z</time>
      </trkpt>
      <trkpt lat="62.59519303719628" lon="12.18609932947952">
        <ele>822</ele>
        <time>2025-07-12T05:09:20.999Z</time>
      </trkpt>
      <trkpt lat="62.59536932002233" lon="12.18630207573665">
        <ele>825</ele>
        <time>2025-07-12T05:09:36.000Z</time>
      </trkpt>
      <trkpt lat="62.59553654480615" lon="12.18633856906832">
        <ele>826</ele>
        <time>2025-07-12T05:09:50.000Z</time>
      </trkpt>
      <trkpt lat="62.59558599733967" lon="12.1862929443425">
        <ele>827</ele>
        <time>2025-07-12T05:09:54.000Z</time>
      </trkpt>
      <trkpt lat="62.59589376431606" lon="12.18659910753346">
        <ele>831</ele>
        <time>2025-07-12T05:10:24.999Z</time>
      </trkpt>
      <trkpt lat="62.59608678333093" lon="12.18716364954997">
        <ele>834</ele>
        <time>2025-07-12T05:10:53.999Z</time>
      </trkpt>
      <trkpt lat="62.59613145807113" lon="12.18749323910949">
        <ele>835</ele>
        <time>2025-07-12T05:11:06.999Z</time>
      </trkpt>
      <trkpt lat="62.59623881125849" lon="12.1879038383407">
        <ele>837</ele>
        <time>2025-07-12T05:11:22.999Z</time>
      </trkpt>
      <trkpt lat="62.59624726426838" lon="12.18816455303074">
        <ele>837</ele>
        <time>2025-07-12T05:11:31.998Z</time>
      </trkpt>
      <trkpt lat="62.59617724883119" lon="12.18841780390113">
        <ele>838</ele>
        <time>2025-07-12T05:11:43.000Z</time>
      </trkpt>
      <trkpt lat="62.59594853825913" lon="12.18858672973854">
        <ele>837</ele>
        <time>2025-07-12T05:12:06.000Z</time>
      </trkpt>
      <trkpt lat="62.59573786734399" lon="12.18890018592275">
        <ele>836</ele>
        <time>2025-07-12T05:12:25.999Z</time>
      </trkpt>
      <trkpt lat="62.59559886532098" lon="12.18926663782712">
        <ele>836</ele>
        <time>2025-07-12T05:12:42.999Z</time>
      </trkpt>
      <trkpt lat="62.59551987494324" lon="12.18971397291239">
        <ele>838</ele>
        <time>2025-07-12T05:12:59.999Z</time>
      </trkpt>
      <trkpt lat="62.59552128340303" lon="12.19015636829663">
        <ele>840</ele>
        <time>2025-07-12T05:13:14.999Z</time>
      </trkpt>
      <trkpt lat="62.59560672016935" lon="12.19083469198113">
        <ele>843</ele>
        <time>2025-07-12T05:13:38.998Z</time>
      </trkpt>
      <trkpt lat="62.59570457867153" lon="12.19116989181057">
        <ele>845</ele>
        <time>2025-07-12T05:13:53.000Z</time>
      </trkpt>
      <trkpt lat="62.59636359093002" lon="12.19168328188387">
        <ele>851</ele>
        <time>2025-07-12T05:14:55.999Z</time>
      </trkpt>
      <trkpt lat="62.5966718814257" lon="12.1918084261651">
        <ele>854</ele>
        <time>2025-07-12T05:15:24.999Z</time>
      </trkpt>
      <trkpt lat="62.59712170658359" lon="12.19230016134609">
        <ele>858</ele>
        <time>2025-07-12T05:16:04.000Z</time>
      </trkpt>
      <trkpt lat="62.59718241693946" lon="12.19243067938137">
        <ele>859</ele>
        <time>2025-07-12T05:16:11.000Z</time>
      </trkpt>
      <trkpt lat="62.59716062506818" lon="12.1924716018519">
        <ele>859</ele>
        <time>2025-07-12T05:16:22.000Z</time>
      </trkpt>
      <trkpt lat="62.59720438968866" lon="12.19246636386269">
        <ele>860</ele>
        <time>2025-07-12T05:21:49.671Z</time>
      </trkpt>
      <trkpt lat="62.59756314832008" lon="12.19389362028638">
        <ele>867</ele>
        <time>2025-07-12T05:22:40.000Z</time>
      </trkpt>
      <trkpt lat="62.59765230151661" lon="12.19409729977456">
        <ele>869</ele>
        <time>2025-07-12T05:22:48.999Z</time>
      </trkpt>
      <trkpt lat="62.59769990946152" lon="12.19411508230878">
        <ele>869</ele>
        <time>2025-07-12T05:22:50.999Z</time>
      </trkpt>
      <trkpt lat="62.59770999104082" lon="12.19426666165565">
        <ele>870</ele>
        <time>2025-07-12T05:22:53.999Z</time>
      </trkpt>
      <trkpt lat="62.59791327372916" lon="12.19456101204748">
        <ele>872</ele>
        <time>2025-07-12T05:23:06.999Z</time>
      </trkpt>
      <trkpt lat="62.59807914114334" lon="12.19521958940202">
        <ele>876</ele>
        <time>2025-07-12T05:23:31.999Z</time>
      </trkpt>
      <trkpt lat="62.59806617785185" lon="12.19533602711096">
        <ele>876</ele>
        <time>2025-07-12T05:23:34.999Z</time>
      </trkpt>
      <trkpt lat="62.5981908576325" lon="12.19601129520255">
        <ele>879</ele>
        <time>2025-07-12T05:23:55.998Z</time>
      </trkpt>
      <trkpt lat="62.59831163333553" lon="12.19626463654207">
        <ele>881</ele>
        <time>2025-07-12T05:24:09.000Z</time>
      </trkpt>
      <trkpt lat="62.59835192353265" lon="12.19673380463282">
        <ele>883</ele>
        <time>2025-07-12T05:24:24.000Z</time>
      </trkpt>
      <trkpt lat="62.59847500631672" lon="12.19709337651545">
        <ele>886</ele>
        <time>2025-07-12T05:24:40.000Z</time>
      </trkpt>
      <trkpt lat="62.59850530056298" lon="12.19754796941512">
        <ele>888</ele>
        <time>2025-07-12T05:24:55.999Z</time>
      </trkpt>
      <trkpt lat="62.59868424014511" lon="12.19839426369834">
        <ele>892</ele>
        <time>2025-07-12T05:25:27.999Z</time>
      </trkpt>
      <trkpt lat="62.59878804024566" lon="12.1985177875142">
        <ele>894</ele>
        <time>2025-07-12T05:25:35.999Z</time>
      </trkpt>
      <trkpt lat="62.5988662917505" lon="12.19852057529631">
        <ele>894</ele>
        <time>2025-07-12T05:25:40.999Z</time>
      </trkpt>
      <trkpt lat="62.59891213720169" lon="12.1987380947011">
        <ele>895</ele>
        <time>2025-07-12T05:25:48.999Z</time>
      </trkpt>
      <trkpt lat="62.59895317751866" lon="12.19878433138352">
        <ele>896</ele>
        <time>2025-07-12T05:25:51.999Z</time>
      </trkpt>
      <trkpt lat="62.59901337761491" lon="12.19872510140877">
        <ele>896</ele>
        <time>2025-07-12T05:25:56.999Z</time>
      </trkpt>
      <trkpt lat="62.59916641085834" lon="12.19881752369221">
        <ele>897</ele>
        <time>2025-07-12T05:26:07.000Z</time>
      </trkpt>
      <trkpt lat="62.59923533721052" lon="12.19876097970349">
        <ele>897</ele>
        <time>2025-07-12T05:26:12.000Z</time>
      </trkpt>
      <trkpt lat="62.59930266934528" lon="12.1988245830658">
        <ele>898</ele>
        <time>2025-07-12T05:26:17.000Z</time>
      </trkpt>
      <trkpt lat="62.59948892644582" lon="12.1992568683991">
        <ele>900</ele>
        <time>2025-07-12T05:26:37.000Z</time>
      </trkpt>
      <trkpt lat="62.59961591304496" lon="12.19939185933774">
        <ele>901</ele>
        <time>2025-07-12T05:26:47.000Z</time>
      </trkpt>
      <trkpt lat="62.59964645168357" lon="12.19952469495997">
        <ele>902</ele>
        <time>2025-07-12T05:26:52.000Z</time>
      </trkpt>
      <trkpt lat="62.59970593846426" lon="12.19959280993396">
        <ele>902</ele>
        <time>2025-07-12T05:26:56.999Z</time>
      </trkpt>
      <trkpt lat="62.59974734719408" lon="12.19984870729553">
        <ele>903</ele>
        <time>2025-07-12T05:27:06.999Z</time>
      </trkpt>
      <trkpt lat="62.59993180162408" lon="12.19983896442816">
        <ele>904</ele>
        <time>2025-07-12T05:27:21.999Z</time>
      </trkpt>
      <trkpt lat="62.600069463668" lon="12.19994341905711">
        <ele>905</ele>
        <time>2025-07-12T05:27:31.999Z</time>
      </trkpt>
      <trkpt lat="62.60017163980032" lon="12.20027306652514">
        <ele>906</ele>
        <time>2025-07-12T05:27:44.999Z</time>
      </trkpt>
      <trkpt lat="62.60034731852307" lon="12.20052402417207">
        <ele>907</ele>
        <time>2025-07-12T05:28:00.999Z</time>
      </trkpt>
      <trkpt lat="62.60041422641737" lon="12.20071609340505">
        <ele>908</ele>
        <time>2025-07-12T05:28:08.998Z</time>
      </trkpt>
      <trkpt lat="62.60041378349995" lon="12.20107631285531">
        <ele>909</ele>
        <time>2025-07-12T05:28:21.000Z</time>
      </trkpt>
      <trkpt lat="62.6002602162563" lon="12.20141088093594">
        <ele>909</ele>
        <time>2025-07-12T05:28:36.000Z</time>
      </trkpt>
      <trkpt lat="62.60005723056044" lon="12.2016527127112">
        <ele>909</ele>
        <time>2025-07-12T05:28:54.000Z</time>
      </trkpt>
      <trkpt lat="62.59999637518261" lon="12.20159304162438">
        <ele>908</ele>
        <time>2025-07-12T05:28:59.000Z</time>
      </trkpt>
      <trkpt lat="62.59983147411229" lon="12.2016239896721">
        <ele>908</ele>
        <time>2025-07-12T05:29:09.999Z</time>
      </trkpt>
      <trkpt lat="62.59965639870201" lon="12.20189216131133">
        <ele>907</ele>
        <time>2025-07-12T05:29:32.999Z</time>
      </trkpt>
      <trkpt lat="62.5995834642934" lon="12.20214845502684">
        <ele>908</ele>
        <time>2025-07-12T05:29:42.999Z</time>
      </trkpt>
      <trkpt lat="62.59934573399853" lon="12.20243459546377">
        <ele>907</ele>
        <time>2025-07-12T05:30:01.999Z</time>
      </trkpt>
      <trkpt lat="62.59930788751046" lon="12.2028330882157">
        <ele>908</ele>
        <time>2025-07-12T05:30:14.998Z</time>
      </trkpt>
      <trkpt lat="62.59932293018724" lon="12.2029919564795">
        <ele>908</ele>
        <time>2025-07-12T05:30:20.000Z</time>
      </trkpt>
      <trkpt lat="62.59927605129708" lon="12.20311507343699">
        <ele>908</ele>
        <time>2025-07-12T05:30:25.000Z</time>
      </trkpt>
      <trkpt lat="62.59920776506561" lon="12.20312438267546">
        <ele>908</ele>
        <time>2025-07-12T05:30:30.000Z</time>
      </trkpt>
      <trkpt lat="62.59901849474397" lon="12.20292709118111">
        <ele>907</ele>
        <time>2025-07-12T05:30:43.000Z</time>
      </trkpt>
      <trkpt lat="62.59884992197582" lon="12.20292026735445">
        <ele>906</ele>
        <time>2025-07-12T05:30:56.000Z</time>
      </trkpt>
      <trkpt lat="62.59871311772739" lon="12.20304255850265">
        <ele>906</ele>
        <time>2025-07-12T05:31:05.000Z</time>
      </trkpt>
      <trkpt lat="62.59860163532601" lon="12.20336776661981">
        <ele>906</ele>
        <time>2025-07-12T05:31:17.999Z</time>
      </trkpt>
      <trkpt lat="62.59832000190723" lon="12.20368777473739">
        <ele>905</ele>
        <time>2025-07-12T05:31:38.999Z</time>
      </trkpt>
      <trkpt lat="62.59816605219948" lon="12.20397054085522">
        <ele>905</ele>
        <time>2025-07-12T05:31:53.999Z</time>
      </trkpt>
      <trkpt lat="62.59809099267071" lon="12.20423058622731">
        <ele>904</ele>
        <time>2025-07-12T05:32:04.999Z</time>
      </trkpt>
      <trkpt lat="62.59800442831341" lon="12.20428310163323">
        <ele>904</ele>
        <time>2025-07-12T05:32:11.999Z</time>
      </trkpt>
      <trkpt lat="62.59792070848407" lon="12.20420339743026">
        <ele>904</ele>
        <time>2025-07-12T05:32:17.998Z</time>
      </trkpt>
      <trkpt lat="62.5977246429125" lon="12.20428854943516">
        <ele>903</ele>
        <time>2025-07-12T05:32:32.000Z</time>
      </trkpt>
      <trkpt lat="62.59766369503688" lon="12.20417136605289">
        <ele>903</ele>
        <time>2025-07-12T05:32:37.000Z</time>
      </trkpt>
      <trkpt lat="62.59756574882533" lon="12.204146423917">
        <ele>902</ele>
        <time>2025-07-12T05:32:44.000Z</time>
      </trkpt>
      <trkpt lat="62.59749081696549" lon="12.20396967917434">
        <ele>902</ele>
        <time>2025-07-12T05:32:53.000Z</time>
      </trkpt>
      <trkpt lat="62.59736148554302" lon="12.2039348901269">
        <ele>902</ele>
        <time>2025-07-12T05:33:02.000Z</time>
      </trkpt>
      <trkpt lat="62.59721613920966" lon="12.20433010580896">
        <ele>901</ele>
        <time>2025-07-12T05:33:17.999Z</time>
      </trkpt>
      <trkpt lat="62.59733830822414" lon="12.20472592347132">
        <ele>902</ele>
        <time>2025-07-12T05:33:32.999Z</time>
      </trkpt>
      <trkpt lat="62.59724233555035" lon="12.20488053945065">
        <ele>902</ele>
        <time>2025-07-12T05:33:40.999Z</time>
      </trkpt>
      <trkpt lat="62.5970166213763" lon="12.20481497725561">
        <ele>901</ele>
        <time>2025-07-12T05:33:56.999Z</time>
      </trkpt>
      <trkpt lat="62.5969146256343" lon="12.20493829078749">
        <ele>901</ele>
        <time>2025-07-12T05:34:04.999Z</time>
      </trkpt>
      <trkpt lat="62.59687937418089" lon="12.20518446460246">
        <ele>901</ele>
        <time>2025-07-12T05:34:12.999Z</time>
      </trkpt>
      <trkpt lat="62.59673968124328" lon="12.20557192085521">
        <ele>901</ele>
        <time>2025-07-12T05:34:30.000Z</time>
      </trkpt>
      <trkpt lat="62.59654028138495" lon="12.20581898038746">
        <ele>901</ele>
        <time>2025-07-12T05:34:48.000Z</time>
      </trkpt>
      <trkpt lat="62.59641541852749" lon="12.20579320900348">
        <ele>901</ele>
        <time>2025-07-12T05:34:56.000Z</time>
      </trkpt>
      <trkpt lat="62.59619856357381" lon="12.20619783010681">
        <ele>901</ele>
        <time>2025-07-12T05:35:15.999Z</time>
      </trkpt>
      <trkpt lat="62.59571713077891" lon="12.2063661152747">
        <ele>901</ele>
        <time>2025-07-12T05:35:48.999Z</time>
      </trkpt>
      <trkpt lat="62.59543539488276" lon="12.20676291521641">
        <ele>900</ele>
        <time>2025-07-12T05:36:11.999Z</time>
      </trkpt>
      <trkpt lat="62.59512117375971" lon="12.20702790747123">
        <ele>900</ele>
        <time>2025-07-12T05:36:34.998Z</time>
      </trkpt>
      <trkpt lat="62.59486095480057" lon="12.2073269051396">
        <ele>900</ele>
        <time>2025-07-12T05:36:56.000Z</time>
      </trkpt>
      <trkpt lat="62.59456113388317" lon="12.20780977908908">
        <ele>898</ele>
        <time>2025-07-12T05:37:20.999Z</time>
      </trkpt>
      <trkpt lat="62.59437843779138" lon="12.20771329545602">
        <ele>898</ele>
        <time>2025-07-12T05:37:34.999Z</time>
      </trkpt>
      <trkpt lat="62.59417568553226" lon="12.20776124108773">
        <ele>898</ele>
        <time>2025-07-12T05:37:48.999Z</time>
      </trkpt>
      <trkpt lat="62.59407017451805" lon="12.20795772055209">
        <ele>897</ele>
        <time>2025-07-12T05:37:57.999Z</time>
      </trkpt>
      <trkpt lat="62.59378792571523" lon="12.20811646060276">
        <ele>895</ele>
        <time>2025-07-12T05:38:17.999Z</time>
      </trkpt>
      <trkpt lat="62.59372843745128" lon="12.20827007781501">
        <ele>894</ele>
        <time>2025-07-12T05:38:23.999Z</time>
      </trkpt>
      <trkpt lat="62.59359609586021" lon="12.20888633491222">
        <ele>892</ele>
        <time>2025-07-12T05:38:45.000Z</time>
      </trkpt>
      <trkpt lat="62.59350984060927" lon="12.20897637423034">
        <ele>892</ele>
        <time>2025-07-12T05:38:52.000Z</time>
      </trkpt>
      <trkpt lat="62.59337711782961" lon="12.20899491511896">
        <ele>891</ele>
        <time>2025-07-12T05:39:01.000Z</time>
      </trkpt>
      <trkpt lat="62.5932758802458" lon="12.20892412238024">
        <ele>890</ele>
        <time>2025-07-12T05:39:08.000Z</time>
      </trkpt>
      <trkpt lat="62.59299902982502" lon="12.20913298035721">
        <ele>888</ele>
        <time>2025-07-12T05:39:28.000Z</time>
      </trkpt>
      <trkpt lat="62.59283772244766" lon="12.20912949586473">
        <ele>887</ele>
        <time>2025-07-12T05:39:38.999Z</time>
      </trkpt>
      <trkpt lat="62.5927162754781" lon="12.20923057736001">
        <ele>886</ele>
        <time>2025-07-12T05:39:47.999Z</time>
      </trkpt>
      <trkpt lat="62.59248084350403" lon="12.21003632036444">
        <ele>884</ele>
        <time>2025-07-12T05:40:18.999Z</time>
      </trkpt>
      <trkpt lat="62.59248189729332" lon="12.21016016421396">
        <ele>884</ele>
        <time>2025-07-12T05:40:22.999Z</time>
      </trkpt>
      <trkpt lat="62.59244090579499" lon="12.21021524828236">
        <ele>884</ele>
        <time>2025-07-12T05:40:25.999Z</time>
      </trkpt>
      <trkpt lat="62.59233105836392" lon="12.21069152082985">
        <ele>883</ele>
        <time>2025-07-12T05:40:40.999Z</time>
      </trkpt>
      <trkpt lat="62.59209311226083" lon="12.21104164563886">
        <ele>881</ele>
        <time>2025-07-12T05:41:00.000Z</time>
      </trkpt>
      <trkpt lat="62.591778751298" lon="12.21094454762161">
        <ele>878</ele>
        <time>2025-07-12T05:41:22.000Z</time>
      </trkpt>
      <trkpt lat="62.59153960641341" lon="12.21130640031967">
        <ele>876</ele>
        <time>2025-07-12T05:41:41.999Z</time>
      </trkpt>
      <trkpt lat="62.59143711648279" lon="12.21132365565461">
        <ele>875</ele>
        <time>2025-07-12T05:41:48.999Z</time>
      </trkpt>
      <trkpt lat="62.59094830125537" lon="12.21220021496539">
        <ele>870</ele>
        <time>2025-07-12T05:42:32.999Z</time>
      </trkpt>
      <trkpt lat="62.5908420477078" lon="12.21210575969386">
        <ele>869</ele>
        <time>2025-07-12T05:42:40.999Z</time>
      </trkpt>
      <trkpt lat="62.59053825103049" lon="12.21245413510137">
        <ele>867</ele>
        <time>2025-07-12T05:43:05.000Z</time>
      </trkpt>
      <trkpt lat="62.59027203873775" lon="12.2125756588728">
        <ele>864</ele>
        <time>2025-07-12T05:43:23.000Z</time>
      </trkpt>
      <trkpt lat="62.59015119236273" lon="12.21247002941181">
        <ele>863</ele>
        <time>2025-07-12T05:43:32.000Z</time>
      </trkpt>
      <trkpt lat="62.58993064631287" lon="12.21246150241404">
        <ele>861</ele>
        <time>2025-07-12T05:43:46.999Z</time>
      </trkpt>
      <trkpt lat="62.58976621739953" lon="12.21219643615743">
        <ele>859</ele>
        <time>2025-07-12T05:44:01.999Z</time>
      </trkpt>
      <trkpt lat="62.58961694131228" lon="12.21215657181824">
        <ele>858</ele>
        <time>2025-07-12T05:44:11.999Z</time>
      </trkpt>
      <trkpt lat="62.58947125772735" lon="12.21224580740699">
        <ele>856</ele>
        <time>2025-07-12T05:44:21.999Z</time>
      </trkpt>
      <trkpt lat="62.58904729738425" lon="12.21213780056353">
        <ele>853</ele>
        <time>2025-07-12T05:45:01.000Z</time>
      </trkpt>
      <trkpt lat="62.58848765198503" lon="12.21269734899811">
        <ele>848</ele>
        <time>2025-07-12T05:45:46.000Z</time>
      </trkpt>
      <trkpt lat="62.58805496836872" lon="12.2127266154798">
        <ele>845</ele>
        <time>2025-07-12T05:46:13.999Z</time>
      </trkpt>
      <trkpt lat="62.58784116341025" lon="12.21263920966752">
        <ele>844</ele>
        <time>2025-07-12T05:46:27.999Z</time>
      </trkpt>
      <trkpt lat="62.58764888675917" lon="12.21273961312243">
        <ele>843</ele>
        <time>2025-07-12T05:46:39.999Z</time>
      </trkpt>
      <trkpt lat="62.58745935851415" lon="12.21308537466032">
        <ele>842</ele>
        <time>2025-07-12T05:46:56.999Z</time>
      </trkpt>
      <trkpt lat="62.58693240541415" lon="12.21317890391426">
        <ele>840</ele>
        <time>2025-07-12T05:47:42.000Z</time>
      </trkpt>
      <trkpt lat="62.58679890980285" lon="12.21337094970289">
        <ele>839</ele>
        <time>2025-07-12T05:47:53.000Z</time>
      </trkpt>
      <trkpt lat="62.58659544057083" lon="12.21384503329109">
        <ele>839</ele>
        <time>2025-07-12T05:48:13.999Z</time>
      </trkpt>
      <trkpt lat="62.58654372524757" lon="12.21421217511274">
        <ele>840</ele>
        <time>2025-07-12T05:48:23.999Z</time>
      </trkpt>
      <trkpt lat="62.58634674419236" lon="12.21464790373923">
        <ele>841</ele>
        <time>2025-07-12T05:48:44.999Z</time>
      </trkpt>
      <trkpt lat="62.58632330878469" lon="12.21486533633233">
        <ele>842</ele>
        <time>2025-07-12T05:48:51.999Z</time>
      </trkpt>
      <trkpt lat="62.58633623322405" lon="12.21487326446555">
        <ele>842</ele>
        <time>2025-07-12T05:49:33.023Z</time>
      </trkpt>
      <trkpt lat="62.58636289891754" lon="12.21503303915089">
        <ele>842</ele>
        <time>2025-07-12T05:49:39.000Z</time>
      </trkpt>
      <trkpt lat="62.58636821659364" lon="12.21534663696243">
        <ele>845</ele>
        <time>2025-07-12T05:49:48.000Z</time>
      </trkpt>
      <trkpt lat="62.58631757785951" lon="12.21572642309969">
        <ele>847</ele>
        <time>2025-07-12T05:50:02.000Z</time>
      </trkpt>
      <trkpt lat="62.58604144067476" lon="12.21670068040984">
        <ele>859</ele>
        <time>2025-07-12T05:50:36.999Z</time>
      </trkpt>
      <trkpt lat="62.58579974783315" lon="12.21718608600932">
        <ele>867</ele>
        <time>2025-07-12T05:51:28.999Z</time>
      </trkpt>
      <trkpt lat="62.58572690456611" lon="12.21768155667557">
        <ele>873</ele>
        <time>2025-07-12T05:51:45.000Z</time>
      </trkpt>
      <trkpt lat="62.58556456493454" lon="12.21802505777434">
        <ele>879</ele>
        <time>2025-07-12T05:52:03.000Z</time>
      </trkpt>
      <trkpt lat="62.58552976723221" lon="12.21825559756884">
        <ele>882</ele>
        <time>2025-07-12T05:52:11.000Z</time>
      </trkpt>
      <trkpt lat="62.58548219209971" lon="12.21834605484572">
        <ele>883</ele>
        <time>2025-07-12T05:52:15.000Z</time>
      </trkpt>
      <trkpt lat="62.58535312940968" lon="12.21842095896196">
        <ele>885</ele>
        <time>2025-07-12T05:52:25.000Z</time>
      </trkpt>
      <trkpt lat="62.58521041756146" lon="12.21869767405285">
        <ele>888</ele>
        <time>2025-07-12T05:52:37.999Z</time>
      </trkpt>
      <trkpt lat="62.58540561519533" lon="12.21908534340744">
        <ele>890</ele>
        <time>2025-07-12T05:52:55.999Z</time>
      </trkpt>
      <trkpt lat="62.58550103621374" lon="12.21947310013294">
        <ele>892</ele>
        <time>2025-07-12T05:53:11.999Z</time>
      </trkpt>
      <trkpt lat="62.58549909317818" lon="12.21996834829391">
        <ele>895</ele>
        <time>2025-07-12T05:53:30.999Z</time>
      </trkpt>
      <trkpt lat="62.58536024567065" lon="12.22118963786884">
        <ele>901</ele>
        <time>2025-07-12T05:54:12.000Z</time>
      </trkpt>
      <trkpt lat="62.58483961888466" lon="12.22311877546231">
        <ele>913</ele>
        <time>2025-07-12T05:55:23.999Z</time>
      </trkpt>
      <trkpt lat="62.58464657387424" lon="12.22351678335963">
        <ele>915</ele>
        <time>2025-07-12T05:55:43.999Z</time>
      </trkpt>
      <trkpt lat="62.58426836182983" lon="12.22412148767497">
        <ele>921</ele>
        <time>2025-07-12T05:56:17.000Z</time>
      </trkpt>
      <trkpt lat="62.58411148435545" lon="12.22454589198652">
        <ele>921</ele>
        <time>2025-07-12T05:56:34.000Z</time>
      </trkpt>
      <trkpt lat="62.58392403483174" lon="12.22544918545981">
        <ele>920</ele>
        <time>2025-07-12T05:57:05.999Z</time>
      </trkpt>
      <trkpt lat="62.58382945125069" lon="12.22614840477929">
        <ele>920</ele>
        <time>2025-07-12T05:57:28.999Z</time>
      </trkpt>
      <trkpt lat="62.58354522532774" lon="12.22634340208075">
        <ele>923</ele>
        <time>2025-07-12T05:57:48.999Z</time>
      </trkpt>
      <trkpt lat="62.58338109638116" lon="12.22684322157397">
        <ele>924</ele>
        <time>2025-07-12T05:58:08.000Z</time>
      </trkpt>
      <trkpt lat="62.5833431982698" lon="12.22722088393227">
        <ele>925</ele>
        <time>2025-07-12T05:58:20.000Z</time>
      </trkpt>
      <trkpt lat="62.5831773204678" lon="12.2280271411854">
        <ele>929</ele>
        <time>2025-07-12T05:58:53.999Z</time>
      </trkpt>
      <trkpt lat="62.58318171218764" lon="12.22831032021963">
        <ele>930</ele>
        <time>2025-07-12T05:59:02.999Z</time>
      </trkpt>
      <trkpt lat="62.58313469088429" lon="12.22915471869263">
        <ele>933</ele>
        <time>2025-07-12T05:59:29.999Z</time>
      </trkpt>
      <trkpt lat="62.5831529080645" lon="12.22928616935002">
        <ele>933</ele>
        <time>2025-07-12T05:59:33.999Z</time>
      </trkpt>
      <trkpt lat="62.58312560297648" lon="12.22938677947255">
        <ele>933</ele>
        <time>2025-07-12T05:59:37.999Z</time>
      </trkpt>
      <trkpt lat="62.58311836754324" lon="12.22963630529962">
        <ele>934</ele>
        <time>2025-07-12T05:59:47.999Z</time>
      </trkpt>
      <trkpt lat="62.58317904172389" lon="12.23064379699233">
        <ele>935</ele>
        <time>2025-07-12T06:00:23.000Z</time>
      </trkpt>
      <trkpt lat="62.58300742375098" lon="12.23112876749954">
        <ele>937</ele>
        <time>2025-07-12T06:00:45.000Z</time>
      </trkpt>
      <trkpt lat="62.58285582895027" lon="12.23186664943049">
        <ele>939</ele>
        <time>2025-07-12T06:01:10.999Z</time>
      </trkpt>
      <trkpt lat="62.58267902037534" lon="12.23237376631382">
        <ele>942</ele>
        <time>2025-07-12T06:01:30.999Z</time>
      </trkpt>
      <trkpt lat="62.58266725989146" lon="12.23255608369057">
        <ele>943</ele>
        <time>2025-07-12T06:01:36.999Z</time>
      </trkpt>
      <trkpt lat="62.58263506978328" lon="12.2326525341281">
        <ele>943</ele>
        <time>2025-07-12T06:01:40.999Z</time>
      </trkpt>
      <trkpt lat="62.58262196628827" lon="12.23309233632048">
        <ele>944</ele>
        <time>2025-07-12T06:01:54.999Z</time>
      </trkpt>
      <trkpt lat="62.58258956854193" lon="12.23325950194854">
        <ele>945</ele>
        <time>2025-07-12T06:02:00.999Z</time>
      </trkpt>
      <trkpt lat="62.58241989140807" lon="12.23351293785882">
        <ele>947</ele>
        <time>2025-07-12T06:02:15.000Z</time>
      </trkpt>
      <trkpt lat="62.58226160460521" lon="12.23393398194784">
        <ele>950</ele>
        <time>2025-07-12T06:02:35.000Z</time>
      </trkpt>
      <trkpt lat="62.58224094946" lon="12.23429377522908">
        <ele>951</ele>
        <time>2025-07-12T06:02:48.000Z</time>
      </trkpt>
      <trkpt lat="62.58219104950429" lon="12.23461728564499">
        <ele>952</ele>
        <time>2025-07-12T06:03:01.000Z</time>
      </trkpt>
      <trkpt lat="62.58210850656389" lon="12.23479641443615">
        <ele>954</ele>
        <time>2025-07-12T06:03:10.999Z</time>
      </trkpt>
      <trkpt lat="62.58195912753295" lon="12.23551264114173">
        <ele>956</ele>
        <time>2025-07-12T06:03:42.999Z</time>
      </trkpt>
      <trkpt lat="62.58231785123238" lon="12.23530582047655">
        <ele>953</ele>
        <time>2025-07-12T06:04:10.999Z</time>
      </trkpt>
      <trkpt lat="62.58244605026717" lon="12.23536858759767">
        <ele>952</ele>
        <time>2025-07-12T06:04:21.000Z</time>
      </trkpt>
      <trkpt lat="62.58286627392069" lon="12.23604649626417">
        <ele>948</ele>
        <time>2025-07-12T06:06:48.000Z</time>
      </trkpt>
      <trkpt lat="62.58363081082467" lon="12.23669439218627">
        <ele>939</ele>
        <time>2025-07-12T06:08:05.999Z</time>
      </trkpt>
      <trkpt lat="62.58380279003784" lon="12.23703630354793">
        <ele>937</ele>
        <time>2025-07-12T06:08:22.998Z</time>
      </trkpt>
      <trkpt lat="62.58413434646948" lon="12.23800269869034">
        <ele>935</ele>
        <time>2025-07-12T06:09:01.000Z</time>
      </trkpt>
      <trkpt lat="62.58430718600411" lon="12.23835183795472">
        <ele>934</ele>
        <time>2025-07-12T06:09:19.000Z</time>
      </trkpt>
      <trkpt lat="62.58447092347168" lon="12.23848478579918">
        <ele>932</ele>
        <time>2025-07-12T06:09:30.999Z</time>
      </trkpt>
      <trkpt lat="62.58462308587438" lon="12.23888190086024">
        <ele>930</ele>
        <time>2025-07-12T06:09:49.999Z</time>
      </trkpt>
      <trkpt lat="62.58490354556415" lon="12.23897598103473">
        <ele>927</ele>
        <time>2025-07-12T06:10:08.999Z</time>
      </trkpt>
      <trkpt lat="62.58502195804589" lon="12.23909099533682">
        <ele>926</ele>
        <time>2025-07-12T06:10:17.999Z</time>
      </trkpt>
      <trkpt lat="62.5850149159309" lon="12.23929850464101">
        <ele>926</ele>
        <time>2025-07-12T06:10:23.999Z</time>
      </trkpt>
      <trkpt lat="62.58517766968222" lon="12.23998613017336">
        <ele>925</ele>
        <time>2025-07-12T06:10:48.000Z</time>
      </trkpt>
      <trkpt lat="62.58625066606402" lon="12.24235410794551">
        <ele>918</ele>
        <time>2025-07-12T06:12:46.000Z</time>
      </trkpt>
      <trkpt lat="62.58631816394502" lon="12.24244471717223">
        <ele>918</ele>
        <time>2025-07-12T06:12:52.000Z</time>
      </trkpt>
      <trkpt lat="62.58688205174353" lon="12.24274994457679">
        <ele>919</ele>
        <time>2025-07-12T06:13:34.999Z</time>
      </trkpt>
      <trkpt lat="62.58722367952239" lon="12.24277401469975">
        <ele>918</ele>
        <time>2025-07-12T06:13:58.999Z</time>
      </trkpt>
      <trkpt lat="62.58735528976442" lon="12.24309270335343">
        <ele>918</ele>
        <time>2025-07-12T06:14:12.999Z</time>
      </trkpt>
      <trkpt lat="62.58738886389363" lon="12.24344732490599">
        <ele>918</ele>
        <time>2025-07-12T06:14:23.999Z</time>
      </trkpt>
      <trkpt lat="62.58736780187158" lon="12.24362220758622">
        <ele>918</ele>
        <time>2025-07-12T06:14:28.999Z</time>
      </trkpt>
      <trkpt lat="62.58740453461221" lon="12.24393283637198">
        <ele>918</ele>
        <time>2025-07-12T06:14:39.999Z</time>
      </trkpt>
      <trkpt lat="62.58739218571134" lon="12.24409634789648">
        <ele>918</ele>
        <time>2025-07-12T06:14:45.999Z</time>
      </trkpt>
      <trkpt lat="62.58747935976024" lon="12.2444354238896">
        <ele>918</ele>
        <time>2025-07-12T06:14:58.000Z</time>
      </trkpt>
      <trkpt lat="62.58748766275016" lon="12.24458298436835">
        <ele>918</ele>
        <time>2025-07-12T06:15:02.000Z</time>
      </trkpt>
      <trkpt lat="62.58756201544814" lon="12.24478027590417">
        <ele>918</ele>
        <time>2025-07-12T06:15:10.000Z</time>
      </trkpt>
      <trkpt lat="62.58757462948007" lon="12.2450984595628">
        <ele>918</ele>
        <time>2025-07-12T06:15:20.000Z</time>
      </trkpt>
      <trkpt lat="62.58766900114092" lon="12.24562260559664">
        <ele>918</ele>
        <time>2025-07-12T06:15:39.000Z</time>
      </trkpt>
      <trkpt lat="62.58780242243735" lon="12.24612083149055">
        <ele>918</ele>
        <time>2025-07-12T06:15:58.999Z</time>
      </trkpt>
      <trkpt lat="62.58788031489588" lon="12.24626959853893">
        <ele>917</ele>
        <time>2025-07-12T06:16:05.999Z</time>
      </trkpt>
      <trkpt lat="62.58806462369508" lon="12.24627550503231">
        <ele>917</ele>
        <time>2025-07-12T06:16:17.999Z</time>
      </trkpt>
      <trkpt lat="62.58823954821722" lon="12.24607493377647">
        <ele>917</ele>
        <time>2025-07-12T06:16:34.999Z</time>
      </trkpt>
      <trkpt lat="62.58847638896444" lon="12.24618476804384">
        <ele>916</ele>
        <time>2025-07-12T06:16:54.000Z</time>
      </trkpt>
      <trkpt lat="62.58867219676769" lon="12.24654453097434">
        <ele>916</ele>
        <time>2025-07-12T06:17:12.000Z</time>
      </trkpt>
      <trkpt lat="62.58864382133088" lon="12.24694476216278">
        <ele>916</ele>
        <time>2025-07-12T06:17:26.000Z</time>
      </trkpt>
      <trkpt lat="62.58865593261242" lon="12.2472609298431">
        <ele>917</ele>
        <time>2025-07-12T06:17:37.000Z</time>
      </trkpt>
      <trkpt lat="62.58872686056748" lon="12.24725552011454">
        <ele>917</ele>
        <time>2025-07-12T06:17:41.000Z</time>
      </trkpt>
      <trkpt lat="62.58886580826834" lon="12.24747519487534">
        <ele>917</ele>
        <time>2025-07-12T06:17:52.999Z</time>
      </trkpt>
      <trkpt lat="62.58886622951417" lon="12.24779605321762">
        <ele>918</ele>
        <time>2025-07-12T06:18:05.999Z</time>
      </trkpt>
      <trkpt lat="62.58881890971656" lon="12.24800657818229">
        <ele>918</ele>
        <time>2025-07-12T06:18:15.999Z</time>
      </trkpt>
      <trkpt lat="62.58888683788002" lon="12.24827837178149">
        <ele>919</ele>
        <time>2025-07-12T06:18:26.999Z</time>
      </trkpt>
      <trkpt lat="62.58894713221071" lon="12.24836191898332">
        <ele>919</ele>
        <time>2025-07-12T06:18:31.999Z</time>
      </trkpt>
      <trkpt lat="62.58903174382277" lon="12.24902685463728">
        <ele>920</ele>
        <time>2025-07-12T06:18:57.999Z</time>
      </trkpt>
      <trkpt lat="62.58939198788021" lon="12.249750818098">
        <ele>920</ele>
        <time>2025-07-12T06:19:38.000Z</time>
      </trkpt>
      <trkpt lat="62.58939301950355" lon="12.25012879262883">
        <ele>919</ele>
        <time>2025-07-12T06:19:52.999Z</time>
      </trkpt>
      <trkpt lat="62.58954183010137" lon="12.25051881220874">
        <ele>919</ele>
        <time>2025-07-12T06:20:17.999Z</time>
      </trkpt>
      <trkpt lat="62.58960432680624" lon="12.250794627619">
        <ele>919</ele>
        <time>2025-07-12T06:20:29.999Z</time>
      </trkpt>
      <trkpt lat="62.58993635660276" lon="12.25118590423948">
        <ele>918</ele>
        <time>2025-07-12T06:21:00.999Z</time>
      </trkpt>
      <trkpt lat="62.58998176008748" lon="12.25136036130089">
        <ele>918</ele>
        <time>2025-07-12T06:21:07.000Z</time>
      </trkpt>
      <trkpt lat="62.59003724191327" lon="12.25139759596695">
        <ele>918</ele>
        <time>2025-07-12T06:21:11.000Z</time>
      </trkpt>
      <trkpt lat="62.59005905172109" lon="12.25163245770878">
        <ele>918</ele>
        <time>2025-07-12T06:21:19.000Z</time>
      </trkpt>
      <trkpt lat="62.590011579868" lon="12.25170324667694">
        <ele>918</ele>
        <time>2025-07-12T06:21:23.000Z</time>
      </trkpt>
      <trkpt lat="62.59004816924703" lon="12.25209031682995">
        <ele>918</ele>
        <time>2025-07-12T06:21:37.000Z</time>
      </trkpt>
      <trkpt lat="62.59004326913379" lon="12.2523232957627">
        <ele>918</ele>
        <time>2025-07-12T06:21:45.000Z</time>
      </trkpt>
      <trkpt lat="62.59012289806241" lon="12.25246131208746">
        <ele>918</ele>
        <time>2025-07-12T06:21:53.000Z</time>
      </trkpt>
      <trkpt lat="62.59042156124476" lon="12.25270775515424">
        <ele>917</ele>
        <time>2025-07-12T06:22:15.999Z</time>
      </trkpt>
      <trkpt lat="62.59067063873702" lon="12.25340043572631">
        <ele>917</ele>
        <time>2025-07-12T06:22:45.999Z</time>
      </trkpt>
      <trkpt lat="62.59077745490644" lon="12.25349446100495">
        <ele>917</ele>
        <time>2025-07-12T06:22:54.999Z</time>
      </trkpt>
      <trkpt lat="62.59076101175657" lon="12.25374371385581">
        <ele>917</ele>
        <time>2025-07-12T06:23:02.999Z</time>
      </trkpt>
      <trkpt lat="62.59078733964338" lon="12.25406369065542">
        <ele>917</ele>
        <time>2025-07-12T06:23:15.000Z</time>
      </trkpt>
      <trkpt lat="62.5909257047656" lon="12.25408251413099">
        <ele>917</ele>
        <time>2025-07-12T06:23:26.000Z</time>
      </trkpt>
      <trkpt lat="62.59097393084563" lon="12.2542629259667">
        <ele>917</ele>
        <time>2025-07-12T06:23:33.000Z</time>
      </trkpt>
      <trkpt lat="62.59116939534996" lon="12.25443216833036">
        <ele>917</ele>
        <time>2025-07-12T06:23:49.000Z</time>
      </trkpt>
      <trkpt lat="62.59126625819214" lon="12.25462593859203">
        <ele>917</ele>
        <time>2025-07-12T06:23:58.000Z</time>
      </trkpt>
      <trkpt lat="62.59132705161672" lon="12.25492489432201">
        <ele>917</ele>
        <time>2025-07-12T06:24:08.999Z</time>
      </trkpt>
      <trkpt lat="62.59139399912363" lon="12.25503712249278">
        <ele>917</ele>
        <time>2025-07-12T06:24:15.999Z</time>
      </trkpt>
      <trkpt lat="62.59141587689596" lon="12.25527781950228">
        <ele>917</ele>
        <time>2025-07-12T06:24:23.999Z</time>
      </trkpt>
      <trkpt lat="62.59147550927279" lon="12.25528437309857">
        <ele>917</ele>
        <time>2025-07-12T06:24:27.999Z</time>
      </trkpt>
      <trkpt lat="62.59162842791756" lon="12.25559680152085">
        <ele>917</ele>
        <time>2025-07-12T06:24:45.999Z</time>
      </trkpt>
      <trkpt lat="62.59167679134306" lon="12.25587718362904">
        <ele>917</ele>
        <time>2025-07-12T06:24:54.999Z</time>
      </trkpt>
      <trkpt lat="62.59162514712656" lon="12.25644764228441">
        <ele>918</ele>
        <time>2025-07-12T06:25:12.999Z</time>
      </trkpt>
      <trkpt lat="62.59158628711665" lon="12.25652468825496">
        <ele>918</ele>
        <time>2025-07-12T06:25:16.999Z</time>
      </trkpt>
      <trkpt lat="62.59161325454562" lon="12.25663830782812">
        <ele>918</ele>
        <time>2025-07-12T06:25:21.000Z</time>
      </trkpt>
      <trkpt lat="62.59157617631818" lon="12.25694691928022">
        <ele>918</ele>
        <time>2025-07-12T06:25:32.000Z</time>
      </trkpt>
      <trkpt lat="62.59161953611925" lon="12.2570796125266">
        <ele>918</ele>
        <time>2025-07-12T06:25:37.000Z</time>
      </trkpt>
      <trkpt lat="62.59160707959065" lon="12.257179368701">
        <ele>918</ele>
        <time>2025-07-12T06:25:40.000Z</time>
      </trkpt>
      <trkpt lat="62.59163433905523" lon="12.2573187247776">
        <ele>918</ele>
        <time>2025-07-12T06:25:45.000Z</time>
      </trkpt>
      <trkpt lat="62.59169691215194" lon="12.25743388572558">
        <ele>919</ele>
        <time>2025-07-12T06:25:51.000Z</time>
      </trkpt>
      <trkpt lat="62.59169461201343" lon="12.25775464746143">
        <ele>919</ele>
        <time>2025-07-12T06:26:01.000Z</time>
      </trkpt>
      <trkpt lat="62.59178746112747" lon="12.25772250207308">
        <ele>919</ele>
        <time>2025-07-12T06:26:06.000Z</time>
      </trkpt>
      <trkpt lat="62.59183786051404" lon="12.2579809067585">
        <ele>919</ele>
        <time>2025-07-12T06:26:15.000Z</time>
      </trkpt>
      <trkpt lat="62.59184051935827" lon="12.25816081085139">
        <ele>919</ele>
        <time>2025-07-12T06:26:20.999Z</time>
      </trkpt>
      <trkpt lat="62.59190130630337" lon="12.25824361995936">
        <ele>919</ele>
        <time>2025-07-12T06:26:26.999Z</time>
      </trkpt>
      <trkpt lat="62.59185451557606" lon="12.25834972040973">
        <ele>919</ele>
        <time>2025-07-12T06:26:31.999Z</time>
      </trkpt>
      <trkpt lat="62.59197202101705" lon="12.25935973979782">
        <ele>919</ele>
        <time>2025-07-12T06:27:13.999Z</time>
      </trkpt>
      <trkpt lat="62.59184107572006" lon="12.25958817722298">
        <ele>919</ele>
        <time>2025-07-12T06:27:26.000Z</time>
      </trkpt>
      <trkpt lat="62.59179196506584" lon="12.26012598996355">
        <ele>919</ele>
        <time>2025-07-12T06:27:44.000Z</time>
      </trkpt>
      <trkpt lat="62.59182631418304" lon="12.2602229392968">
        <ele>919</ele>
        <time>2025-07-12T06:27:48.000Z</time>
      </trkpt>
      <trkpt lat="62.5919481859771" lon="12.26028344481811">
        <ele>919</ele>
        <time>2025-07-12T06:27:57.000Z</time>
      </trkpt>
      <trkpt lat="62.59200937569968" lon="12.26058239280757">
        <ele>919</ele>
        <time>2025-07-12T06:28:08.000Z</time>
      </trkpt>
      <trkpt lat="62.59197835413643" lon="12.26070965921787">
        <ele>919</ele>
        <time>2025-07-12T06:28:13.000Z</time>
      </trkpt>
      <trkpt lat="62.59201477789934" lon="12.26095941318642">
        <ele>919</ele>
        <time>2025-07-12T06:28:21.000Z</time>
      </trkpt>
      <trkpt lat="62.59207033244752" lon="12.26102628166893">
        <ele>919</ele>
        <time>2025-07-12T06:28:25.000Z</time>
      </trkpt>
      <trkpt lat="62.59223569706022" lon="12.26147964422225">
        <ele>919</ele>
        <time>2025-07-12T06:28:45.999Z</time>
      </trkpt>
      <trkpt lat="62.59233818231228" lon="12.26161594514677">
        <ele>919</ele>
        <time>2025-07-12T06:28:54.999Z</time>
      </trkpt>
      <trkpt lat="62.59239993493684" lon="12.26162296932527">
        <ele>918</ele>
        <time>2025-07-12T06:28:58.999Z</time>
      </trkpt>
      <trkpt lat="62.59242818167989" lon="12.26183133155629">
        <ele>918</ele>
        <time>2025-07-12T06:29:05.999Z</time>
      </trkpt>
      <trkpt lat="62.59252565112202" lon="12.26180962814667">
        <ele>918</ele>
        <time>2025-07-12T06:29:12.999Z</time>
      </trkpt>
      <trkpt lat="62.59253973540133" lon="12.26188448130384">
        <ele>918</ele>
        <time>2025-07-12T06:29:15.999Z</time>
      </trkpt>
      <trkpt lat="62.592492662198" lon="12.2620223672223">
        <ele>918</ele>
        <time>2025-07-12T06:29:21.999Z</time>
      </trkpt>
      <trkpt lat="62.59255918309783" lon="12.26230497759248">
        <ele>919</ele>
        <time>2025-07-12T06:29:34.000Z</time>
      </trkpt>
      <trkpt lat="62.59261871861101" lon="12.26232117194454">
        <ele>918</ele>
        <time>2025-07-12T06:29:38.000Z</time>
      </trkpt>
      <trkpt lat="62.5927120284909" lon="12.262534096592">
        <ele>919</ele>
        <time>2025-07-12T06:29:48.000Z</time>
      </trkpt>
      <trkpt lat="62.59281738484346" lon="12.2624911588108">
        <ele>918</ele>
        <time>2025-07-12T06:29:55.000Z</time>
      </trkpt>
      <trkpt lat="62.59291046612623" lon="12.26252867986076">
        <ele>918</ele>
        <time>2025-07-12T06:30:02.000Z</time>
      </trkpt>
      <trkpt lat="62.5929680693999" lon="12.26244801251531">
        <ele>918</ele>
        <time>2025-07-12T06:30:08.000Z</time>
      </trkpt>
      <trkpt lat="62.59321269783447" lon="12.26244905862067">
        <ele>918</ele>
        <time>2025-07-12T06:30:30.999Z</time>
      </trkpt>
      <trkpt lat="62.59330782371501" lon="12.26255555388852">
        <ele>918</ele>
        <time>2025-07-12T06:30:39.999Z</time>
      </trkpt>
      <trkpt lat="62.59343365636636" lon="12.26253560695228">
        <ele>918</ele>
        <time>2025-07-12T06:30:48.999Z</time>
      </trkpt>
      <trkpt lat="62.59367878083408" lon="12.26262841165287">
        <ele>918</ele>
        <time>2025-07-12T06:31:09.999Z</time>
      </trkpt>
      <trkpt lat="62.59396296698105" lon="12.26293231749409">
        <ele>919</ele>
        <time>2025-07-12T06:31:39.000Z</time>
      </trkpt>
      <trkpt lat="62.59405439314475" lon="12.2628765802663">
        <ele>918</ele>
        <time>2025-07-12T06:31:48.000Z</time>
      </trkpt>
      <trkpt lat="62.59420775102123" lon="12.26301476088306">
        <ele>918</ele>
        <time>2025-07-12T06:32:06.000Z</time>
      </trkpt>
      <trkpt lat="62.59421082580407" lon="12.26311897337648">
        <ele>919</ele>
        <time>2025-07-12T06:32:45.999Z</time>
      </trkpt>
      <trkpt lat="62.59449049816469" lon="12.26314965986024">
        <ele>918</ele>
        <time>2025-07-12T06:33:25.999Z</time>
      </trkpt>
      <trkpt lat="62.59464209043232" lon="12.26333589447342">
        <ele>917</ele>
        <time>2025-07-12T06:33:44.000Z</time>
      </trkpt>
      <trkpt lat="62.59515018042191" lon="12.26301635363608">
        <ele>917</ele>
        <time>2025-07-12T06:34:23.000Z</time>
      </trkpt>
      <trkpt lat="62.59577647769616" lon="12.26373189013762">
        <ele>916</ele>
        <time>2025-07-12T06:41:36.999Z</time>
      </trkpt>
      <trkpt lat="62.59582535883766" lon="12.26394713556487">
        <ele>915</ele>
        <time>2025-07-12T06:41:44.999Z</time>
      </trkpt>
      <trkpt lat="62.59614662710261" lon="12.2645763079577">
        <ele>915</ele>
        <time>2025-07-12T06:42:29.000Z</time>
      </trkpt>
      <trkpt lat="62.59623978908199" lon="12.26467280322392">
        <ele>915</ele>
        <time>2025-07-12T06:42:36.000Z</time>
      </trkpt>
      <trkpt lat="62.59668504855529" lon="12.26548438893409">
        <ele>914</ele>
        <time>2025-07-12T06:43:21.999Z</time>
      </trkpt>
      <trkpt lat="62.59692609623985" lon="12.26566422516799">
        <ele>915</ele>
        <time>2025-07-12T06:43:41.999Z</time>
      </trkpt>
      <trkpt lat="62.59726101206132" lon="12.26619288804073">
        <ele>915</ele>
        <time>2025-07-12T06:44:17.000Z</time>
      </trkpt>
      <trkpt lat="62.59755956399354" lon="12.2664753813898">
        <ele>916</ele>
        <time>2025-07-12T06:44:43.000Z</time>
      </trkpt>
      <trkpt lat="62.59781609734982" lon="12.2669274452717">
        <ele>917</ele>
        <time>2025-07-12T06:45:09.000Z</time>
      </trkpt>
      <trkpt lat="62.59806641209651" lon="12.26717818808909">
        <ele>918</ele>
        <time>2025-07-12T06:45:49.999Z</time>
      </trkpt>
      <trkpt lat="62.59824409696044" lon="12.26748614622975">
        <ele>918</ele>
        <time>2025-07-12T06:46:06.999Z</time>
      </trkpt>
      <trkpt lat="62.59829806233307" lon="12.26766297320776">
        <ele>919</ele>
        <time>2025-07-12T06:46:13.999Z</time>
      </trkpt>
      <trkpt lat="62.59844014406097" lon="12.26781135259417">
        <ele>919</ele>
        <time>2025-07-12T06:46:26.000Z</time>
      </trkpt>
      <trkpt lat="62.59859012640069" lon="12.26819007637645">
        <ele>920</ele>
        <time>2025-07-12T06:46:43.000Z</time>
      </trkpt>
      <trkpt lat="62.59864645456316" lon="12.26823234311219">
        <ele>920</ele>
        <time>2025-07-12T06:46:47.000Z</time>
      </trkpt>
      <trkpt lat="62.59884362009209" lon="12.26861719020158">
        <ele>920</ele>
        <time>2025-07-12T06:47:07.000Z</time>
      </trkpt>
      <trkpt lat="62.59882967301592" lon="12.26856041652997">
        <ele>920</ele>
        <time>2025-07-12T06:47:41.999Z</time>
      </trkpt>
      <trkpt lat="62.59966618442128" lon="12.26976409223027">
        <ele>920</ele>
        <time>2025-07-12T06:49:02.000Z</time>
      </trkpt>
      <trkpt lat="62.59973339410609" lon="12.26994233948276">
        <ele>921</ele>
        <time>2025-07-12T06:49:10.000Z</time>
      </trkpt>
      <trkpt lat="62.59996908019119" lon="12.27006493903976">
        <ele>920</ele>
        <time>2025-07-12T06:49:27.999Z</time>
      </trkpt>
      <trkpt lat="62.60025260370437" lon="12.270444803893">
        <ele>920</ele>
        <time>2025-07-12T06:49:52.999Z</time>
      </trkpt>
      <trkpt lat="62.60032663968582" lon="12.27045484868374">
        <ele>920</ele>
        <time>2025-07-12T06:49:57.999Z</time>
      </trkpt>
      <trkpt lat="62.60068962008268" lon="12.27074546535766">
        <ele>920</ele>
        <time>2025-07-12T06:50:24.999Z</time>
      </trkpt>
      <trkpt lat="62.60079763196968" lon="12.27076022134207">
        <ele>920</ele>
        <time>2025-07-12T06:50:33.000Z</time>
      </trkpt>
      <trkpt lat="62.60104450813591" lon="12.27108336504742">
        <ele>920</ele>
        <time>2025-07-12T06:50:54.000Z</time>
      </trkpt>
      <trkpt lat="62.60125977820218" lon="12.27114720512273">
        <ele>920</ele>
        <time>2025-07-12T06:51:10.000Z</time>
      </trkpt>
      <trkpt lat="62.60146255851483" lon="12.27142698744053">
        <ele>920</ele>
        <time>2025-07-12T06:51:28.000Z</time>
      </trkpt>
      <trkpt lat="62.60175152817202" lon="12.27170603105337">
        <ele>920</ele>
        <time>2025-07-12T06:51:50.999Z</time>
      </trkpt>
      <trkpt lat="62.6017777764608" lon="12.27179558495175">
        <ele>920</ele>
        <time>2025-07-12T06:51:54.999Z</time>
      </trkpt>
      <trkpt lat="62.60206502652534" lon="12.27193049111299">
        <ele>920</ele>
        <time>2025-07-12T06:52:15.999Z</time>
      </trkpt>
      <trkpt lat="62.60211562994995" lon="12.27203672626325">
        <ele>920</ele>
        <time>2025-07-12T06:52:20.999Z</time>
      </trkpt>
      <trkpt lat="62.60245268644501" lon="12.27238312873127">
        <ele>920</ele>
        <time>2025-07-12T06:52:49.000Z</time>
      </trkpt>
      <trkpt lat="62.60254667231838" lon="12.27255013503051">
        <ele>920</ele>
        <time>2025-07-12T06:52:58.000Z</time>
      </trkpt>
      <trkpt lat="62.60281013459532" lon="12.27276930927116">
        <ele>920</ele>
        <time>2025-07-12T06:53:19.000Z</time>
      </trkpt>
      <trkpt lat="62.60292686730217" lon="12.27278429179902">
        <ele>920</ele>
        <time>2025-07-12T06:53:29.000Z</time>
      </trkpt>
      <trkpt lat="62.60332845091368" lon="12.27315157308503">
        <ele>920</ele>
        <time>2025-07-12T06:54:02.999Z</time>
      </trkpt>
      <trkpt lat="62.60350562242469" lon="12.27338117690214">
        <ele>920</ele>
        <time>2025-07-12T06:54:17.999Z</time>
      </trkpt>
      <trkpt lat="62.60379611310103" lon="12.27352887490024">
        <ele>919</ele>
        <time>2025-07-12T06:54:39.999Z</time>
      </trkpt>
      <trkpt lat="62.60397372805287" lon="12.27374610730556">
        <ele>919</ele>
        <time>2025-07-12T06:54:55.000Z</time>
      </trkpt>
      <trkpt lat="62.6044519865215" lon="12.27393606715534">
        <ele>919</ele>
        <time>2025-07-12T06:55:32.000Z</time>
      </trkpt>
      <trkpt lat="62.60463190383816" lon="12.27410877171731">
        <ele>919</ele>
        <time>2025-07-12T06:55:47.000Z</time>
      </trkpt>
      <trkpt lat="62.60474450895333" lon="12.27466615591192">
        <ele>918</ele>
        <time>2025-07-12T06:56:09.999Z</time>
      </trkpt>
      <trkpt lat="62.60494322581755" lon="12.27474696334486">
        <ele>918</ele>
        <time>2025-07-12T06:56:24.999Z</time>
      </trkpt>
      <trkpt lat="62.60499658918331" lon="12.2751106953269">
        <ele>918</ele>
        <time>2025-07-12T06:56:55.000Z</time>
      </trkpt>
      <trkpt lat="62.60560986042961" lon="12.27557962887814">
        <ele>919</ele>
        <time>2025-07-12T06:58:41.999Z</time>
      </trkpt>
      <trkpt lat="62.60624007571657" lon="12.27641066623899">
        <ele>921</ele>
        <time>2025-07-12T07:00:01.999Z</time>
      </trkpt>
      <trkpt lat="62.60696021550046" lon="12.2771446261589">
        <ele>924</ele>
        <time>2025-07-12T07:01:04.000Z</time>
      </trkpt>
      <trkpt lat="62.60698374716436" lon="12.2773356314396">
        <ele>924</ele>
        <time>2025-07-12T07:01:11.000Z</time>
      </trkpt>
      <trkpt lat="62.60711620105717" lon="12.27749402141445">
        <ele>925</ele>
        <time>2025-07-12T07:01:23.000Z</time>
      </trkpt>
      <trkpt lat="62.60716974765922" lon="12.27764712558367">
        <ele>925</ele>
        <time>2025-07-12T07:01:31.000Z</time>
      </trkpt>
      <trkpt lat="62.60729383902129" lon="12.27774440604968">
        <ele>926</ele>
        <time>2025-07-12T07:01:42.000Z</time>
      </trkpt>
      <trkpt lat="62.60737539037446" lon="12.27787826981969">
        <ele>926</ele>
        <time>2025-07-12T07:01:51.000Z</time>
      </trkpt>
      <trkpt lat="62.60743456164959" lon="12.27814600777264">
        <ele>925</ele>
        <time>2025-07-12T07:02:03.000Z</time>
      </trkpt>
      <trkpt lat="62.60764091475019" lon="12.27865585581323">
        <ele>926</ele>
        <time>2025-07-12T07:02:59.000Z</time>
      </trkpt>
      <trkpt lat="62.60786849100906" lon="12.27901187541844">
        <ele>928</ele>
        <time>2025-07-12T07:03:19.000Z</time>
      </trkpt>
      <trkpt lat="62.60804679178923" lon="12.27957817579242">
        <ele>929</ele>
        <time>2025-07-12T07:03:45.000Z</time>
      </trkpt>
      <trkpt lat="62.60818348211227" lon="12.279708442455">
        <ele>930</ele>
        <time>2025-07-12T07:03:56.000Z</time>
      </trkpt>
      <trkpt lat="62.60832189101069" lon="12.27964506886453">
        <ele>931</ele>
        <time>2025-07-12T07:04:06.000Z</time>
      </trkpt>
      <trkpt lat="62.6085939678738" lon="12.27971902813481">
        <ele>934</ele>
        <time>2025-07-12T07:04:31.000Z</time>
      </trkpt>
      <trkpt lat="62.60869394839447" lon="12.2795997584114">
        <ele>936</ele>
        <time>2025-07-12T07:04:59.000Z</time>
      </trkpt>
      <trkpt lat="62.60886222563558" lon="12.27971184679259">
        <ele>938</ele>
        <time>2025-07-12T07:05:15.000Z</time>
      </trkpt>
      <trkpt lat="62.6089355696997" lon="12.28003118252083">
        <ele>938</ele>
        <time>2025-07-12T07:05:35.000Z</time>
      </trkpt>
      <trkpt lat="62.60912593458824" lon="12.27996099028597">
        <ele>941</ele>
        <time>2025-07-12T07:05:53.000Z</time>
      </trkpt>
      <trkpt lat="62.60938372410928" lon="12.28002855805848">
        <ele>945</ele>
        <time>2025-07-12T07:06:15.000Z</time>
      </trkpt>
      <trkpt lat="62.609708063567" lon="12.27988771497943">
        <ele>951</ele>
        <time>2025-07-12T07:06:38.000Z</time>
      </trkpt>
      <trkpt lat="62.6097979813782" lon="12.27995611043891">
        <ele>952</ele>
        <time>2025-07-12T07:06:47.000Z</time>
      </trkpt>
      <trkpt lat="62.61005247788302" lon="12.27982991947518">
        <ele>957</ele>
        <time>2025-07-12T07:07:11.999Z</time>
      </trkpt>
      <trkpt lat="62.61011922797933" lon="12.27985962723744">
        <ele>958</ele>
        <time>2025-07-12T07:07:19.000Z</time>
      </trkpt>
      <trkpt lat="62.61018389996033" lon="12.27977705572504">
        <ele>960</ele>
        <time>2025-07-12T07:07:34.000Z</time>
      </trkpt>
      <trkpt lat="62.61040402382074" lon="12.27985527457688">
        <ele>963</ele>
        <time>2025-07-12T07:07:55.000Z</time>
      </trkpt>
      <trkpt lat="62.61055727858614" lon="12.27982114906112">
        <ele>966</ele>
        <time>2025-07-12T07:08:11.000Z</time>
      </trkpt>
      <trkpt lat="62.6105930970278" lon="12.27987646099239">
        <ele>967</ele>
        <time>2025-07-12T07:08:15.000Z</time>
      </trkpt>
      <trkpt lat="62.61084761783364" lon="12.27984118898979">
        <ele>972</ele>
        <time>2025-07-12T07:08:40.000Z</time>
      </trkpt>
      <trkpt lat="62.6114161800282" lon="12.27997512486625">
        <ele>983</ele>
        <time>2025-07-12T07:09:24.000Z</time>
      </trkpt>
      <trkpt lat="62.61146684328283" lon="12.28007353157444">
        <ele>984</ele>
        <time>2025-07-12T07:09:29.000Z</time>
      </trkpt>
      <trkpt lat="62.61190082366566" lon="12.28032539425609">
        <ele>991</ele>
        <time>2025-07-12T07:10:03.000Z</time>
      </trkpt>
      <trkpt lat="62.61259607800334" lon="12.28113283104975">
        <ele>1002</ele>
        <time>2025-07-12T07:11:27.999Z</time>
      </trkpt>
      <trkpt lat="62.61284638777897" lon="12.28127045044356">
        <ele>1004</ele>
        <time>2025-07-12T07:11:47.000Z</time>
      </trkpt>
      <trkpt lat="62.61295579910465" lon="12.28141253299325">
        <ele>1005</ele>
        <time>2025-07-12T07:11:57.000Z</time>
      </trkpt>
      <trkpt lat="62.61323892627775" lon="12.28205767331728">
        <ele>1007</ele>
        <time>2025-07-12T07:12:27.000Z</time>
      </trkpt>
      <trkpt lat="62.61325585168782" lon="12.28248013553816">
        <ele>1007</ele>
        <time>2025-07-12T07:12:42.000Z</time>
      </trkpt>
      <trkpt lat="62.61344959402008" lon="12.28369476614112">
        <ele>1006</ele>
        <time>2025-07-12T07:13:25.000Z</time>
      </trkpt>
      <trkpt lat="62.61345214705976" lon="12.28416170998866">
        <ele>1005</ele>
        <time>2025-07-12T07:13:40.000Z</time>
      </trkpt>
      <trkpt lat="62.61350452237446" lon="12.28428237934727">
        <ele>1005</ele>
        <time>2025-07-12T07:13:46.000Z</time>
      </trkpt>
      <trkpt lat="62.61345305847598" lon="12.28529144562191">
        <ele>1003</ele>
        <time>2025-07-12T07:17:22.999Z</time>
      </trkpt>
      <trkpt lat="62.61352102870875" lon="12.28587776453223">
        <ele>1002</ele>
        <time>2025-07-12T07:17:43.999Z</time>
      </trkpt>
      <trkpt lat="62.61351832690716" lon="12.2869733021101">
        <ele>995</ele>
        <time>2025-07-12T07:18:22.000Z</time>
      </trkpt>
      <trkpt lat="62.61355070052623" lon="12.28781215893288">
        <ele>984</ele>
        <time>2025-07-12T07:18:50.000Z</time>
      </trkpt>
      <trkpt lat="62.61351182899523" lon="12.28824375269829">
        <ele>977</ele>
        <time>2025-07-12T07:19:05.000Z</time>
      </trkpt>
      <trkpt lat="62.61352619085284" lon="12.28849287748867">
        <ele>973</ele>
        <time>2025-07-12T07:19:13.000Z</time>
      </trkpt>
      <trkpt lat="62.61349969014388" lon="12.28865273379625">
        <ele>971</ele>
        <time>2025-07-12T07:19:18.999Z</time>
      </trkpt>
      <trkpt lat="62.61350468706858" lon="12.28898433028788">
        <ele>967</ele>
        <time>2025-07-12T07:19:29.999Z</time>
      </trkpt>
      <trkpt lat="62.61347365476659" lon="12.28927697798564">
        <ele>963</ele>
        <time>2025-07-12T07:19:39.999Z</time>
      </trkpt>
      <trkpt lat="62.61356565041267" lon="12.28961678692767">
        <ele>961</ele>
        <time>2025-07-12T07:19:53.000Z</time>
      </trkpt>
      <trkpt lat="62.61365084469692" lon="12.29009773089597">
        <ele>957</ele>
        <time>2025-07-12T07:20:10.000Z</time>
      </trkpt>
      <trkpt lat="62.61365104095032" lon="12.29042740321662">
        <ele>956</ele>
        <time>2025-07-12T07:20:21.000Z</time>
      </trkpt>
      <trkpt lat="62.61358410178847" lon="12.29093083934272">
        <ele>953</ele>
        <time>2025-07-12T07:20:38.000Z</time>
      </trkpt>
      <trkpt lat="62.61368028942869" lon="12.29127573889284">
        <ele>953</ele>
        <time>2025-07-12T07:21:03.000Z</time>
      </trkpt>
      <trkpt lat="62.61369971244434" lon="12.29148235225218">
        <ele>952</ele>
        <time>2025-07-12T07:21:11.000Z</time>
      </trkpt>
      <trkpt lat="62.61368082193026" lon="12.29160283818986">
        <ele>952</ele>
        <time>2025-07-12T07:21:15.000Z</time>
      </trkpt>
      <trkpt lat="62.61378564126845" lon="12.29207065785422">
        <ele>952</ele>
        <time>2025-07-12T07:22:34.000Z</time>
      </trkpt>
      <trkpt lat="62.61379090178786" lon="12.2927483380305">
        <ele>951</ele>
        <time>2025-07-12T07:23:36.999Z</time>
      </trkpt>
      <trkpt lat="62.6137441320676" lon="12.29325084536742">
        <ele>950</ele>
        <time>2025-07-12T07:23:57.999Z</time>
      </trkpt>
      <trkpt lat="62.61376396492089" lon="12.29351124855442">
        <ele>950</ele>
        <time>2025-07-12T07:24:08.000Z</time>
      </trkpt>
      <trkpt lat="62.61374830271729" lon="12.29421517173163">
        <ele>948</ele>
        <time>2025-07-12T07:24:34.000Z</time>
      </trkpt>
      <trkpt lat="62.61382142673064" lon="12.29495435263752">
        <ele>947</ele>
        <time>2025-07-12T07:25:03.000Z</time>
      </trkpt>
      <trkpt lat="62.61381138107904" lon="12.29509518821646">
        <ele>947</ele>
        <time>2025-07-12T07:25:08.000Z</time>
      </trkpt>
      <trkpt lat="62.61390269468686" lon="12.29555269120597">
        <ele>946</ele>
        <time>2025-07-12T07:25:26.000Z</time>
      </trkpt>
      <trkpt lat="62.61399743188697" lon="12.29577723412553">
        <ele>947</ele>
        <time>2025-07-12T07:25:38.000Z</time>
      </trkpt>
      <trkpt lat="62.61399894037606" lon="12.2958385069962">
        <ele>947</ele>
        <time>2025-07-12T07:25:40.000Z</time>
      </trkpt>
      <trkpt lat="62.61406883523412" lon="12.29588452432881">
        <ele>947</ele>
        <time>2025-07-12T07:25:46.000Z</time>
      </trkpt>
      <trkpt lat="62.61413227310079" lon="12.29613769087332">
        <ele>947</ele>
        <time>2025-07-12T07:25:57.000Z</time>
      </trkpt>
      <trkpt lat="62.61413586597919" lon="12.29658308566196">
        <ele>947</ele>
        <time>2025-07-12T07:26:16.001Z</time>
      </trkpt>
      <trkpt lat="62.61420752008939" lon="12.29702072485465">
        <ele>948</ele>
        <time>2025-07-12T07:26:34.000Z</time>
      </trkpt>
      <trkpt lat="62.61421219219826" lon="12.29731457340085">
        <ele>948</ele>
        <time>2025-07-12T07:26:45.000Z</time>
      </trkpt>
      <trkpt lat="62.61425438688543" lon="12.29741771804336">
        <ele>949</ele>
        <time>2025-07-12T07:26:50.000Z</time>
      </trkpt>
      <trkpt lat="62.61426678430703" lon="12.29757161451271">
        <ele>949</ele>
        <time>2025-07-12T07:26:56.000Z</time>
      </trkpt>
      <trkpt lat="62.61433301158805" lon="12.29782529059739">
        <ele>951</ele>
        <time>2025-07-12T07:27:07.000Z</time>
      </trkpt>
      <trkpt lat="62.61432780522128" lon="12.29808546859629">
        <ele>951</ele>
        <time>2025-07-12T07:27:17.000Z</time>
      </trkpt>
      <trkpt lat="62.61442021213976" lon="12.29835622805038">
        <ele>953</ele>
        <time>2025-07-12T07:27:29.000Z</time>
      </trkpt>
      <trkpt lat="62.61459827415753" lon="12.29956731983934">
        <ele>959</ele>
        <time>2025-07-12T07:28:19.001Z</time>
      </trkpt>
      <trkpt lat="62.61466456619998" lon="12.29972112718084">
        <ele>960</ele>
        <time>2025-07-12T07:28:27.001Z</time>
      </trkpt>
      <trkpt lat="62.61473631422305" lon="12.30013862949357">
        <ele>962</ele>
        <time>2025-07-12T07:28:43.000Z</time>
      </trkpt>
      <trkpt lat="62.61481419442548" lon="12.30017769177181">
        <ele>963</ele>
        <time>2025-07-12T07:28:50.000Z</time>
      </trkpt>
      <trkpt lat="62.61480112555294" lon="12.30024653141178">
        <ele>962</ele>
        <time>2025-07-12T07:28:52.000Z</time>
      </trkpt>
      <trkpt lat="62.61483713240742" lon="12.30028110314131">
        <ele>963</ele>
        <time>2025-07-12T07:28:56.000Z</time>
      </trkpt>
      <trkpt lat="62.61481677195403" lon="12.30025587852361">
        <ele>963</ele>
        <time>2025-07-12T07:29:14.000Z</time>
      </trkpt>
      <trkpt lat="62.61482337768413" lon="12.30042418558031">
        <ele>963</ele>
        <time>2025-07-12T07:29:29.000Z</time>
      </trkpt>
      <trkpt lat="62.6149798007712" lon="12.30104212710136">
        <ele>964</ele>
        <time>2025-07-12T07:29:57.000Z</time>
      </trkpt>
      <trkpt lat="62.61527850842746" lon="12.30180761443391">
        <ele>965</ele>
        <time>2025-07-12T07:30:56.000Z</time>
      </trkpt>
      <trkpt lat="62.61529296116817" lon="12.30202387370794">
        <ele>965</ele>
        <time>2025-07-12T07:31:03.000Z</time>
      </trkpt>
      <trkpt lat="62.61540056977066" lon="12.30254977160069">
        <ele>966</ele>
        <time>2025-07-12T07:31:25.999Z</time>
      </trkpt>
      <trkpt lat="62.6154219361123" lon="12.30297044754824">
        <ele>967</ele>
        <time>2025-07-12T07:31:53.999Z</time>
      </trkpt>
      <trkpt lat="62.61529200245448" lon="12.30333433018081">
        <ele>965</ele>
        <time>2025-07-12T07:32:52.000Z</time>
      </trkpt>
      <trkpt lat="62.6155039286912" lon="12.30340636203017">
        <ele>968</ele>
        <time>2025-07-12T07:33:40.999Z</time>
      </trkpt>
      <trkpt lat="62.61581322065853" lon="12.30314202533406">
        <ele>971</ele>
        <time>2025-07-12T07:34:16.999Z</time>
      </trkpt>
      <trkpt lat="62.61728829891068" lon="12.30362804879478">
        <ele>1003</ele>
        <time>2025-07-12T07:38:03.000Z</time>
      </trkpt>
      <trkpt lat="62.61737250979257" lon="12.30344234448358">
        <ele>1004</ele>
        <time>2025-07-12T07:38:16.000Z</time>
      </trkpt>
      <trkpt lat="62.61757880844611" lon="12.30338901951817">
        <ele>1010</ele>
        <time>2025-07-12T07:39:00.000Z</time>
      </trkpt>
      <trkpt lat="62.61774591998466" lon="12.3031795461982">
        <ele>1016</ele>
        <time>2025-07-12T07:39:24.000Z</time>
      </trkpt>
      <trkpt lat="62.6180441348174" lon="12.30321988214298">
        <ele>1029</ele>
        <time>2025-07-12T07:39:58.000Z</time>
      </trkpt>
      <trkpt lat="62.61837202547731" lon="12.3027824247027">
        <ele>1040</ele>
        <time>2025-07-12T07:41:18.000Z</time>
      </trkpt>
      <trkpt lat="62.61838334348268" lon="12.30269208853187">
        <ele>1040</ele>
        <time>2025-07-12T07:41:22.000Z</time>
      </trkpt>
      <trkpt lat="62.61857659710651" lon="12.30249419243804">
        <ele>1048</ele>
        <time>2025-07-12T07:41:47.000Z</time>
      </trkpt>
      <trkpt lat="62.61867344162093" lon="12.30258587356677">
        <ele>1053</ele>
        <time>2025-07-12T07:41:59.000Z</time>
      </trkpt>
      <trkpt lat="62.61905065860674" lon="12.30362003369404">
        <ele>1073</ele>
        <time>2025-07-12T07:43:26.000Z</time>
      </trkpt>
      <trkpt lat="62.61910278420319" lon="12.30366481253975">
        <ele>1076</ele>
        <time>2025-07-12T07:43:33.000Z</time>
      </trkpt>
      <trkpt lat="62.61915762393174" lon="12.3039457904205">
        <ele>1079</ele>
        <time>2025-07-12T07:43:52.000Z</time>
      </trkpt>
      <trkpt lat="62.61924630131046" lon="12.30405458280001">
        <ele>1083</ele>
        <time>2025-07-12T07:44:04.000Z</time>
      </trkpt>
      <trkpt lat="62.6192853159752" lon="12.30448674901432">
        <ele>1085</ele>
        <time>2025-07-12T07:44:40.999Z</time>
      </trkpt>
      <trkpt lat="62.61946368680615" lon="12.30478147569606">
        <ele>1090</ele>
        <time>2025-07-12T07:45:19.000Z</time>
      </trkpt>
      <trkpt lat="62.61946159394145" lon="12.30496758761304">
        <ele>1090</ele>
        <time>2025-07-12T07:45:29.000Z</time>
      </trkpt>
      <trkpt lat="62.61990676418736" lon="12.30535918024324">
        <ele>1105</ele>
        <time>2025-07-12T07:47:03.999Z</time>
      </trkpt>
      <trkpt lat="62.62002302533396" lon="12.30567057448763">
        <ele>1111</ele>
        <time>2025-07-12T07:47:23.000Z</time>
      </trkpt>
      <trkpt lat="62.62001544021465" lon="12.30573884315273">
        <ele>1112</ele>
        <time>2025-07-12T07:47:42.000Z</time>
      </trkpt>
      <trkpt lat="62.6203086412116" lon="12.30599863288896">
        <ele>1119</ele>
        <time>2025-07-12T07:48:39.999Z</time>
      </trkpt>
      <trkpt lat="62.62048804373664" lon="12.30597824485187">
        <ele>1124</ele>
        <time>2025-07-12T07:48:59.999Z</time>
      </trkpt>
      <trkpt lat="62.62058667937499" lon="12.30621008458798">
        <ele>1124</ele>
        <time>2025-07-12T07:49:22.000Z</time>
      </trkpt>
      <trkpt lat="62.62086457113432" lon="12.30625576952329">
        <ele>1131</ele>
        <time>2025-07-12T07:50:19.999Z</time>
      </trkpt>
      <trkpt lat="62.62094822210931" lon="12.30641802905785">
        <ele>1130</ele>
        <time>2025-07-12T07:50:33.999Z</time>
      </trkpt>
      <trkpt lat="62.62117457514999" lon="12.30639985527414">
        <ele>1133</ele>
        <time>2025-07-12T07:50:56.999Z</time>
      </trkpt>
      <trkpt lat="62.62137183717877" lon="12.30657457823567">
        <ele>1135</ele>
        <time>2025-07-12T07:51:20.999Z</time>
      </trkpt>
      <trkpt lat="62.62150606757108" lon="12.30648509968391">
        <ele>1137</ele>
        <time>2025-07-12T07:51:42.000Z</time>
      </trkpt>
      <trkpt lat="62.62154439973274" lon="12.30652414736443">
        <ele>1137</ele>
        <time>2025-07-12T07:51:48.000Z</time>
      </trkpt>
      <trkpt lat="62.62161873946054" lon="12.30647185014862">
        <ele>1139</ele>
        <time>2025-07-12T07:51:59.000Z</time>
      </trkpt>
      <trkpt lat="62.62169693311218" lon="12.30658389712231">
        <ele>1139</ele>
        <time>2025-07-12T07:52:16.999Z</time>
      </trkpt>
      <trkpt lat="62.62175766892355" lon="12.30659669519972">
        <ele>1139</ele>
        <time>2025-07-12T07:52:23.999Z</time>
      </trkpt>
      <trkpt lat="62.62198542936338" lon="12.3064194114373">
        <ele>1141</ele>
        <time>2025-07-12T07:52:51.999Z</time>
      </trkpt>
      <trkpt lat="62.62219166543094" lon="12.30615963393666">
        <ele>1144</ele>
        <time>2025-07-12T07:53:17.999Z</time>
      </trkpt>
      <trkpt lat="62.62232130930864" lon="12.30585767870743">
        <ele>1147</ele>
        <time>2025-07-12T07:53:43.000Z</time>
      </trkpt>
      <trkpt lat="62.62245251941098" lon="12.30566506461511">
        <ele>1149</ele>
        <time>2025-07-12T07:53:59.000Z</time>
      </trkpt>
      <trkpt lat="62.62257273565268" lon="12.30528524985039">
        <ele>1151</ele>
        <time>2025-07-12T07:54:18.000Z</time>
      </trkpt>
      <trkpt lat="62.62264041050169" lon="12.30494842053922">
        <ele>1152</ele>
        <time>2025-07-12T07:54:34.000Z</time>
      </trkpt>
      <trkpt lat="62.62274009998531" lon="12.30471369698395">
        <ele>1153</ele>
        <time>2025-07-12T07:54:51.999Z</time>
      </trkpt>
      <trkpt lat="62.62272808598184" lon="12.3047202523749">
        <ele>1153</ele>
        <time>2025-07-12T07:55:12.999Z</time>
      </trkpt>
      <trkpt lat="62.62274081301631" lon="12.30472723471543">
        <ele>1153</ele>
        <time>2025-07-12T07:55:13.999Z</time>
      </trkpt>
      <trkpt lat="62.62272909702423" lon="12.30468357794538">
        <ele>1153</ele>
        <time>2025-07-12T07:55:15.999Z</time>
      </trkpt>
      <trkpt lat="62.6229067138991" lon="12.30433373484887">
        <ele>1153</ele>
        <time>2025-07-12T07:55:37.999Z</time>
      </trkpt>
      <trkpt lat="62.62294484619177" lon="12.3041141233745">
        <ele>1154</ele>
        <time>2025-07-12T07:55:46.999Z</time>
      </trkpt>
      <trkpt lat="62.62321510070779" lon="12.30341518675436">
        <ele>1156</ele>
        <time>2025-07-12T07:56:21.999Z</time>
      </trkpt>
      <trkpt lat="62.62322106370746" lon="12.30324092979222">
        <ele>1158</ele>
        <time>2025-07-12T07:56:42.999Z</time>
      </trkpt>
      <trkpt lat="62.62330090672229" lon="12.30288040398852">
        <ele>1160</ele>
        <time>2025-07-12T07:56:58.999Z</time>
      </trkpt>
      <trkpt lat="62.62368257549892" lon="12.30178997368394">
        <ele>1160</ele>
        <time>2025-07-12T07:58:02.000Z</time>
      </trkpt>
      <trkpt lat="62.62383015109005" lon="12.30094758311072">
        <ele>1162</ele>
        <time>2025-07-12T07:58:38.000Z</time>
      </trkpt>
      <trkpt lat="62.62384829988994" lon="12.30061820613338">
        <ele>1161</ele>
        <time>2025-07-12T07:58:51.999Z</time>
      </trkpt>
      <trkpt lat="62.62383833207844" lon="12.30033733464041">
        <ele>1161</ele>
        <time>2025-07-12T07:59:06.999Z</time>
      </trkpt>
      <trkpt lat="62.62388097317968" lon="12.29992503442197">
        <ele>1160</ele>
        <time>2025-07-12T07:59:22.999Z</time>
      </trkpt>
      <trkpt lat="62.62385285708196" lon="12.29941251476081">
        <ele>1159</ele>
        <time>2025-07-12T07:59:42.999Z</time>
      </trkpt>
      <trkpt lat="62.62387792691168" lon="12.29850247147513">
        <ele>1152</ele>
        <time>2025-07-12T08:00:21.000Z</time>
      </trkpt>
      <trkpt lat="62.62377302692776" lon="12.2969538787668">
        <ele>1148</ele>
        <time>2025-07-12T08:01:25.999Z</time>
      </trkpt>
      <trkpt lat="62.62377117742274" lon="12.29629849428045">
        <ele>1149</ele>
        <time>2025-07-12T08:01:59.000Z</time>
      </trkpt>
      <trkpt lat="62.62374785219099" lon="12.29631341555377">
        <ele>1150</ele>
        <time>2025-07-12T08:02:06.000Z</time>
      </trkpt>
      <trkpt lat="62.6237962940071" lon="12.29576545812104">
        <ele>1150</ele>
        <time>2025-07-12T08:02:33.000Z</time>
      </trkpt>
      <trkpt lat="62.62378001256277" lon="12.29529900423828">
        <ele>1151</ele>
        <time>2025-07-12T08:02:42.000Z</time>
      </trkpt>
      <trkpt lat="62.623804099124" lon="12.29516449521011">
        <ele>1151</ele>
        <time>2025-07-12T08:02:50.000Z</time>
      </trkpt>
      <trkpt lat="62.62382820767723" lon="12.29355364263042">
        <ele>1152</ele>
        <time>2025-07-12T08:04:02.001Z</time>
      </trkpt>
      <trkpt lat="62.62380458452669" lon="12.29284209003031">
        <ele>1152</ele>
        <time>2025-07-12T08:04:48.000Z</time>
      </trkpt>
      <trkpt lat="62.62352835436033" lon="12.29046970944528">
        <ele>1158</ele>
        <time>2025-07-12T08:06:48.000Z</time>
      </trkpt>
      <trkpt lat="62.62348035257798" lon="12.28958191374517">
        <ele>1160</ele>
        <time>2025-07-12T08:07:22.000Z</time>
      </trkpt>
      <trkpt lat="62.62349388061529" lon="12.28959959346501">
        <ele>1159</ele>
        <time>2025-07-12T08:31:48.000Z</time>
      </trkpt>
      <trkpt lat="62.62370966987529" lon="12.28864833768017">
        <ele>1153</ele>
        <time>2025-07-12T08:32:35.999Z</time>
      </trkpt>
      <trkpt lat="62.6237533504691" lon="12.28814487280835">
        <ele>1154</ele>
        <time>2025-07-12T08:32:53.999Z</time>
      </trkpt>
      <trkpt lat="62.62396849187247" lon="12.28672165710966">
        <ele>1162</ele>
        <time>2025-07-12T08:33:47.000Z</time>
      </trkpt>
      <trkpt lat="62.62400080293848" lon="12.28627207596043">
        <ele>1165</ele>
        <time>2025-07-12T08:34:04.000Z</time>
      </trkpt>
      <trkpt lat="62.62406476123215" lon="12.28604279018042">
        <ele>1166</ele>
        <time>2025-07-12T08:34:14.000Z</time>
      </trkpt>
      <trkpt lat="62.62429572481756" lon="12.2845930083853">
        <ele>1171</ele>
        <time>2025-07-12T08:35:09.999Z</time>
      </trkpt>
      <trkpt lat="62.62445587367414" lon="12.28396167088836">
        <ele>1168</ele>
        <time>2025-07-12T08:35:55.000Z</time>
      </trkpt>
      <trkpt lat="62.62483378301874" lon="12.28285997194865">
        <ele>1163</ele>
        <time>2025-07-12T08:36:43.999Z</time>
      </trkpt>
      <trkpt lat="62.62493638528533" lon="12.28248549089883">
        <ele>1164</ele>
        <time>2025-07-12T08:36:59.999Z</time>
      </trkpt>
      <trkpt lat="62.62517760903355" lon="12.28192516431943">
        <ele>1157</ele>
        <time>2025-07-12T08:37:26.999Z</time>
      </trkpt>
      <trkpt lat="62.62602822539599" lon="12.27891055178601">
        <ele>1147</ele>
        <time>2025-07-12T08:39:37.999Z</time>
      </trkpt>
      <trkpt lat="62.62606457839473" lon="12.27869581760976">
        <ele>1147</ele>
        <time>2025-07-12T08:39:46.999Z</time>
      </trkpt>
      <trkpt lat="62.62628991414336" lon="12.27808491600478">
        <ele>1146</ele>
        <time>2025-07-12T08:40:15.000Z</time>
      </trkpt>
      <trkpt lat="62.62648219213884" lon="12.27731280448384">
        <ele>1145</ele>
        <time>2025-07-12T08:41:03.999Z</time>
      </trkpt>
      <trkpt lat="62.62647510369672" lon="12.27736965984436">
        <ele>1145</ele>
        <time>2025-07-12T08:41:15.999Z</time>
      </trkpt>
      <trkpt lat="62.62652229416455" lon="12.27700841367634">
        <ele>1145</ele>
        <time>2025-07-12T08:42:36.000Z</time>
      </trkpt>
      <trkpt lat="62.62610427794757" lon="12.27552385164564">
        <ele>1138</ele>
        <time>2025-07-12T08:43:49.999Z</time>
      </trkpt>
      <trkpt lat="62.62609731631807" lon="12.27523149111136">
        <ele>1137</ele>
        <time>2025-07-12T08:44:42.000Z</time>
      </trkpt>
      <trkpt lat="62.62606602494732" lon="12.27513210906065">
        <ele>1136</ele>
        <time>2025-07-12T08:44:50.000Z</time>
      </trkpt>
      <trkpt lat="62.62608452012175" lon="12.27488268103662">
        <ele>1135</ele>
        <time>2025-07-12T08:45:05.000Z</time>
      </trkpt>
      <trkpt lat="62.62591505161937" lon="12.27463887362423">
        <ele>1130</ele>
        <time>2025-07-12T08:45:30.999Z</time>
      </trkpt>
      <trkpt lat="62.62539211552809" lon="12.2744064017523">
        <ele>1118</ele>
        <time>2025-07-12T08:46:20.000Z</time>
      </trkpt>
      <trkpt lat="62.62515222188486" lon="12.2737747004636">
        <ele>1106</ele>
        <time>2025-07-12T08:47:23.999Z</time>
      </trkpt>
      <trkpt lat="62.62499761186597" lon="12.27301421102068">
        <ele>1095</ele>
        <time>2025-07-12T08:47:59.999Z</time>
      </trkpt>
      <trkpt lat="62.62498797020333" lon="12.27283972482044">
        <ele>1093</ele>
        <time>2025-07-12T08:48:06.999Z</time>
      </trkpt>
      <trkpt lat="62.62483299328059" lon="12.27253342620331">
        <ele>1087</ele>
        <time>2025-07-12T08:48:28.000Z</time>
      </trkpt>
      <trkpt lat="62.6248153957313" lon="12.27224921662064">
        <ele>1084</ele>
        <time>2025-07-12T08:48:47.000Z</time>
      </trkpt>
      <trkpt lat="62.62470805713314" lon="12.27207539698097">
        <ele>1081</ele>
        <time>2025-07-12T08:49:16.999Z</time>
      </trkpt>
      <trkpt lat="62.62468064758314" lon="12.27197057778996">
        <ele>1080</ele>
        <time>2025-07-12T08:49:27.999Z</time>
      </trkpt>
      <trkpt lat="62.62451700796898" lon="12.27193634795213">
        <ele>1078</ele>
        <time>2025-07-12T08:49:45.999Z</time>
      </trkpt>
      <trkpt lat="62.62439575219042" lon="12.27170508924847">
        <ele>1075</ele>
        <time>2025-07-12T08:49:59.999Z</time>
      </trkpt>
      <trkpt lat="62.6240559041052" lon="12.27128611899001">
        <ele>1068</ele>
        <time>2025-07-12T08:50:36.000Z</time>
      </trkpt>
      <trkpt lat="62.6236286162228" lon="12.2708901112053">
        <ele>1061</ele>
        <time>2025-07-12T08:51:16.000Z</time>
      </trkpt>
      <trkpt lat="62.62302254377398" lon="12.27019773590393">
        <ele>1050</ele>
        <time>2025-07-12T08:52:08.999Z</time>
      </trkpt>
      <trkpt lat="62.62284024491798" lon="12.27009161749411">
        <ele>1047</ele>
        <time>2025-07-12T08:52:23.999Z</time>
      </trkpt>
      <trkpt lat="62.62222563605239" lon="12.26933788727752">
        <ele>1037</ele>
        <time>2025-07-12T08:53:25.000Z</time>
      </trkpt>
      <trkpt lat="62.62201993972764" lon="12.26917714978888">
        <ele>1035</ele>
        <time>2025-07-12T08:53:44.999Z</time>
      </trkpt>
      <trkpt lat="62.62184142154275" lon="12.26924733568824">
        <ele>1034</ele>
        <time>2025-07-12T08:53:59.999Z</time>
      </trkpt>
      <trkpt lat="62.62173736206768" lon="12.26916247410472">
        <ele>1033</ele>
        <time>2025-07-12T08:54:08.999Z</time>
      </trkpt>
      <trkpt lat="62.62126925007543" lon="12.26919627062691">
        <ele>1031</ele>
        <time>2025-07-12T08:54:45.000Z</time>
      </trkpt>
      <trkpt lat="62.6211621767554" lon="12.26937819147248">
        <ele>1031</ele>
        <time>2025-07-12T08:54:56.000Z</time>
      </trkpt>
      <trkpt lat="62.62085758567351" lon="12.26915477971612">
        <ele>1029</ele>
        <time>2025-07-12T08:55:23.000Z</time>
      </trkpt>
      <trkpt lat="62.62036733639393" lon="12.26909427524987">
        <ele>1028</ele>
        <time>2025-07-12T08:56:03.999Z</time>
      </trkpt>
      <trkpt lat="62.61970143151551" lon="12.26785586211346">
        <ele>1024</ele>
        <time>2025-07-12T08:57:48.999Z</time>
      </trkpt>
      <trkpt lat="62.61966560984515" lon="12.26788959077605">
        <ele>1024</ele>
        <time>2025-07-12T08:57:57.999Z</time>
      </trkpt>
      <trkpt lat="62.61949741442695" lon="12.26755820178218">
        <ele>1023</ele>
        <time>2025-07-12T08:58:18.999Z</time>
      </trkpt>
      <trkpt lat="62.61910740299917" lon="12.26706917802924">
        <ele>1023</ele>
        <time>2025-07-12T08:58:52.999Z</time>
      </trkpt>
      <trkpt lat="62.61876671594054" lon="12.26734667052944">
        <ele>1022</ele>
        <time>2025-07-12T08:59:21.000Z</time>
      </trkpt>
      <trkpt lat="62.61867508391926" lon="12.26715966851829">
        <ele>1021</ele>
        <time>2025-07-12T08:59:31.000Z</time>
      </trkpt>
      <trkpt lat="62.61858216610689" lon="12.26711491586511">
        <ele>1021</ele>
        <time>2025-07-12T08:59:39.000Z</time>
      </trkpt>
      <trkpt lat="62.6184095791367" lon="12.26683511589586">
        <ele>1021</ele>
        <time>2025-07-12T08:59:56.999Z</time>
      </trkpt>
      <trkpt lat="62.61837387351606" lon="12.26665023147259">
        <ele>1020</ele>
        <time>2025-07-12T09:00:04.999Z</time>
      </trkpt>
      <trkpt lat="62.61783586722471" lon="12.26657823243974">
        <ele>1018</ele>
        <time>2025-07-12T09:00:44.999Z</time>
      </trkpt>
      <trkpt lat="62.61713791323874" lon="12.26664948205862">
        <ele>1015</ele>
        <time>2025-07-12T09:01:41.000Z</time>
      </trkpt>
      <trkpt lat="62.61689275306362" lon="12.26672886510765">
        <ele>1013</ele>
        <time>2025-07-12T09:01:59.999Z</time>
      </trkpt>
      <trkpt lat="62.61643272530693" lon="12.26709587370121">
        <ele>1011</ele>
        <time>2025-07-12T09:02:38.999Z</time>
      </trkpt>
      <trkpt lat="62.61629515948113" lon="12.26730760952117">
        <ele>1011</ele>
        <time>2025-07-12T09:02:52.999Z</time>
      </trkpt>
      <trkpt lat="62.61610395972344" lon="12.26747305972539">
        <ele>1010</ele>
        <time>2025-07-12T09:03:09.000Z</time>
      </trkpt>
      <trkpt lat="62.6158133369598" lon="12.26744399524992">
        <ele>1007</ele>
        <time>2025-07-12T09:03:32.000Z</time>
      </trkpt>
      <trkpt lat="62.61576963144962" lon="12.26749789631877">
        <ele>1007</ele>
        <time>2025-07-12T09:03:36.000Z</time>
      </trkpt>
      <trkpt lat="62.61553445000779" lon="12.26732709196182">
        <ele>1005</ele>
        <time>2025-07-12T09:03:56.000Z</time>
      </trkpt>
      <trkpt lat="62.61527299126126" lon="12.26721374821429">
        <ele>1002</ele>
        <time>2025-07-12T09:04:17.999Z</time>
      </trkpt>
      <trkpt lat="62.6151307831541" lon="12.26688038967163">
        <ele>1000</ele>
        <time>2025-07-12T09:04:40.999Z</time>
      </trkpt>
      <trkpt lat="62.61502605092189" lon="12.26687455362991">
        <ele>999</ele>
        <time>2025-07-12T09:04:48.999Z</time>
      </trkpt>
      <trkpt lat="62.61483848040882" lon="12.2666066018342">
        <ele>996</ele>
        <time>2025-07-12T09:05:16.000Z</time>
      </trkpt>
      <trkpt lat="62.61467095490884" lon="12.26673460602149">
        <ele>995</ele>
        <time>2025-07-12T09:05:29.000Z</time>
      </trkpt>
      <trkpt lat="62.61460834587106" lon="12.26663013372687">
        <ele>994</ele>
        <time>2025-07-12T09:05:35.000Z</time>
      </trkpt>
      <trkpt lat="62.614528600843" lon="12.26670750394672">
        <ele>994</ele>
        <time>2025-07-12T09:05:41.000Z</time>
      </trkpt>
      <trkpt lat="62.61424293346998" lon="12.26636557543005">
        <ele>990</ele>
        <time>2025-07-12T09:06:05.999Z</time>
      </trkpt>
      <trkpt lat="62.61408274323265" lon="12.2664319849814">
        <ele>988</ele>
        <time>2025-07-12T09:06:18.999Z</time>
      </trkpt>
      <trkpt lat="62.61391876134394" lon="12.26618801412944">
        <ele>986</ele>
        <time>2025-07-12T09:06:35.999Z</time>
      </trkpt>
      <trkpt lat="62.61393372026991" lon="12.26610168498869">
        <ele>986</ele>
        <time>2025-07-12T09:06:43.999Z</time>
      </trkpt>
      <trkpt lat="62.61395491604522" lon="12.26611438920589">
        <ele>986</ele>
        <time>2025-07-12T09:06:47.999Z</time>
      </trkpt>
      <trkpt lat="62.61393445471611" lon="12.26610819196897">
        <ele>986</ele>
        <time>2025-07-12T09:06:48.999Z</time>
      </trkpt>
      <trkpt lat="62.6139372517577" lon="12.26599441360021">
        <ele>986</ele>
        <time>2025-07-12T09:06:51.999Z</time>
      </trkpt>
      <trkpt lat="62.61390392483347" lon="12.26584120470108">
        <ele>985</ele>
        <time>2025-07-12T09:06:57.999Z</time>
      </trkpt>
      <trkpt lat="62.61384349038828" lon="12.2658081201048">
        <ele>984</ele>
        <time>2025-07-12T09:07:02.999Z</time>
      </trkpt>
      <trkpt lat="62.6138377791361" lon="12.26572997594396">
        <ele>984</ele>
        <time>2025-07-12T09:07:07.999Z</time>
      </trkpt>
      <trkpt lat="62.61393649581851" lon="12.26544611367325">
        <ele>985</ele>
        <time>2025-07-12T09:07:20.000Z</time>
      </trkpt>
      <trkpt lat="62.61392795690969" lon="12.26532788532047">
        <ele>984</ele>
        <time>2025-07-12T09:07:24.000Z</time>
      </trkpt>
      <trkpt lat="62.61386473158906" lon="12.26520446984088">
        <ele>984</ele>
        <time>2025-07-12T09:07:30.000Z</time>
      </trkpt>
      <trkpt lat="62.61384217532962" lon="12.26490945506609">
        <ele>983</ele>
        <time>2025-07-12T09:07:41.000Z</time>
      </trkpt>
      <trkpt lat="62.61411224712099" lon="12.26470103710616">
        <ele>986</ele>
        <time>2025-07-12T09:08:02.000Z</time>
      </trkpt>
      <trkpt lat="62.61422275339844" lon="12.2643668425987">
        <ele>987</ele>
        <time>2025-07-12T09:08:17.999Z</time>
      </trkpt>
      <trkpt lat="62.61424342975369" lon="12.26410445503651">
        <ele>987</ele>
        <time>2025-07-12T09:08:27.999Z</time>
      </trkpt>
      <trkpt lat="62.61430157614286" lon="12.26407156535217">
        <ele>987</ele>
        <time>2025-07-12T09:08:31.999Z</time>
      </trkpt>
      <trkpt lat="62.61436903896974" lon="12.26392936698388">
        <ele>988</ele>
        <time>2025-07-12T09:08:38.999Z</time>
      </trkpt>
      <trkpt lat="62.61448477686945" lon="12.26341407266932">
        <ele>988</ele>
        <time>2025-07-12T09:08:57.999Z</time>
      </trkpt>
      <trkpt lat="62.61461743254765" lon="12.263337495298">
        <ele>989</ele>
        <time>2025-07-12T09:09:09.999Z</time>
      </trkpt>
      <trkpt lat="62.6147319274875" lon="12.26310371886467">
        <ele>989</ele>
        <time>2025-07-12T09:09:24.000Z</time>
      </trkpt>
      <trkpt lat="62.61472157399132" lon="12.26293604994589">
        <ele>989</ele>
        <time>2025-07-12T09:09:32.000Z</time>
      </trkpt>
      <trkpt lat="62.61463981478218" lon="12.26263737433071">
        <ele>987</ele>
        <time>2025-07-12T09:09:45.000Z</time>
      </trkpt>
      <trkpt lat="62.61467326327333" lon="12.26232194809001">
        <ele>986</ele>
        <time>2025-07-12T09:09:59.000Z</time>
      </trkpt>
      <trkpt lat="62.61463311742898" lon="12.26222322978919">
        <ele>986</ele>
        <time>2025-07-12T09:10:04.000Z</time>
      </trkpt>
      <trkpt lat="62.61462322264544" lon="12.2619761134754">
        <ele>985</ele>
        <time>2025-07-12T09:10:13.999Z</time>
      </trkpt>
      <trkpt lat="62.61451659693423" lon="12.26194382356661">
        <ele>984</ele>
        <time>2025-07-12T09:10:22.999Z</time>
      </trkpt>
      <trkpt lat="62.61442403163644" lon="12.26179899429231">
        <ele>983</ele>
        <time>2025-07-12T09:10:35.999Z</time>
      </trkpt>
      <trkpt lat="62.61432169616909" lon="12.26072481804594">
        <ele>981</ele>
        <time>2025-07-12T09:12:10.999Z</time>
      </trkpt>
      <trkpt lat="62.61426869939994" lon="12.26065337987947">
        <ele>980</ele>
        <time>2025-07-12T09:12:15.999Z</time>
      </trkpt>
      <trkpt lat="62.6141434290019" lon="12.26064545624491">
        <ele>979</ele>
        <time>2025-07-12T09:12:24.999Z</time>
      </trkpt>
      <trkpt lat="62.61398328029836" lon="12.26040549614748">
        <ele>977</ele>
        <time>2025-07-12T09:12:38.999Z</time>
      </trkpt>
      <trkpt lat="62.61395605886637" lon="12.26023014389804">
        <ele>977</ele>
        <time>2025-07-12T09:12:45.999Z</time>
      </trkpt>
      <trkpt lat="62.61385978983778" lon="12.26007994184637">
        <ele>976</ele>
        <time>2025-07-12T09:12:54.999Z</time>
      </trkpt>
      <trkpt lat="62.61380334393505" lon="12.26012799432212">
        <ele>976</ele>
        <time>2025-07-12T09:12:58.999Z</time>
      </trkpt>
      <trkpt lat="62.61372592055888" lon="12.26029902821501">
        <ele>976</ele>
        <time>2025-07-12T09:13:06.999Z</time>
      </trkpt>
      <trkpt lat="62.61363075601606" lon="12.26035803939676">
        <ele>975</ele>
        <time>2025-07-12T09:13:15.999Z</time>
      </trkpt>
      <trkpt lat="62.61360246976903" lon="12.26027335349379">
        <ele>975</ele>
        <time>2025-07-12T09:13:18.999Z</time>
      </trkpt>
      <trkpt lat="62.61350690242976" lon="12.26031124850967">
        <ele>974</ele>
        <time>2025-07-12T09:13:25.999Z</time>
      </trkpt>
      <trkpt lat="62.61345294856611" lon="12.26022663702741">
        <ele>974</ele>
        <time>2025-07-12T09:13:29.999Z</time>
      </trkpt>
      <trkpt lat="62.6133876844677" lon="12.2602996468475">
        <ele>973</ele>
        <time>2025-07-12T09:13:34.999Z</time>
      </trkpt>
      <trkpt lat="62.6132332808308" lon="12.26017319883351">
        <ele>972</ele>
        <time>2025-07-12T09:13:47.000Z</time>
      </trkpt>
      <trkpt lat="62.61318288890577" lon="12.25994692807885">
        <ele>971</ele>
        <time>2025-07-12T09:13:56.000Z</time>
      </trkpt>
      <trkpt lat="62.61319106026026" lon="12.25986491373389">
        <ele>971</ele>
        <time>2025-07-12T09:13:59.000Z</time>
      </trkpt>
      <trkpt lat="62.61309860811595" lon="12.25969716147824">
        <ele>970</ele>
        <time>2025-07-12T09:14:09.000Z</time>
      </trkpt>
      <trkpt lat="62.61305074691127" lon="12.25952069229356">
        <ele>969</ele>
        <time>2025-07-12T09:14:17.000Z</time>
      </trkpt>
      <trkpt lat="62.6127357070002" lon="12.25898717009447">
        <ele>965</ele>
        <time>2025-07-12T09:14:48.999Z</time>
      </trkpt>
      <trkpt lat="62.61271910567766" lon="12.25888202383089">
        <ele>964</ele>
        <time>2025-07-12T09:14:52.999Z</time>
      </trkpt>
      <trkpt lat="62.61248119132466" lon="12.25845185355539">
        <ele>961</ele>
        <time>2025-07-12T09:15:18.999Z</time>
      </trkpt>
      <trkpt lat="62.61239045656727" lon="12.25841665395203">
        <ele>960</ele>
        <time>2025-07-12T09:15:25.999Z</time>
      </trkpt>
      <trkpt lat="62.61225845517845" lon="12.25814603501333">
        <ele>958</ele>
        <time>2025-07-12T09:15:42.000Z</time>
      </trkpt>
      <trkpt lat="62.61222308753413" lon="12.25778221428934">
        <ele>956</ele>
        <time>2025-07-12T09:15:57.000Z</time>
      </trkpt>
      <trkpt lat="62.61224751295054" lon="12.25761357142832">
        <ele>956</ele>
        <time>2025-07-12T09:16:04.000Z</time>
      </trkpt>
      <trkpt lat="62.61222090144813" lon="12.25733159776465">
        <ele>955</ele>
        <time>2025-07-12T09:16:15.000Z</time>
      </trkpt>
      <trkpt lat="62.6120903110377" lon="12.25697220418733">
        <ele>953</ele>
        <time>2025-07-12T09:16:31.000Z</time>
      </trkpt>
      <trkpt lat="62.61201810860218" lon="12.25657357632931">
        <ele>951</ele>
        <time>2025-07-12T09:16:46.000Z</time>
      </trkpt>
      <trkpt lat="62.61193944353573" lon="12.25648536543648">
        <ele>950</ele>
        <time>2025-07-12T09:16:54.000Z</time>
      </trkpt>
      <trkpt lat="62.61184798394907" lon="12.25628127890106">
        <ele>949</ele>
        <time>2025-07-12T09:17:17.999Z</time>
      </trkpt>
      <trkpt lat="62.61181401907196" lon="12.25596390678949">
        <ele>948</ele>
        <time>2025-07-12T09:17:29.999Z</time>
      </trkpt>
      <trkpt lat="62.61165452939866" lon="12.25574796363173">
        <ele>946</ele>
        <time>2025-07-12T09:17:44.999Z</time>
      </trkpt>
      <trkpt lat="62.61159854935438" lon="12.25545528561705">
        <ele>945</ele>
        <time>2025-07-12T09:17:56.000Z</time>
      </trkpt>
      <trkpt lat="62.61150608415186" lon="12.25527492208394">
        <ele>943</ele>
        <time>2025-07-12T09:18:06.000Z</time>
      </trkpt>
      <trkpt lat="62.6114514082412" lon="12.25495276168768">
        <ele>942</ele>
        <time>2025-07-12T09:18:18.000Z</time>
      </trkpt>
      <trkpt lat="62.61147106048909" lon="12.25484458790816">
        <ele>942</ele>
        <time>2025-07-12T09:18:22.000Z</time>
      </trkpt>
      <trkpt lat="62.61145421673562" lon="12.2546495144756">
        <ele>941</ele>
        <time>2025-07-12T09:18:29.000Z</time>
      </trkpt>
      <trkpt lat="62.6113320585232" lon="12.25462957323824">
        <ele>940</ele>
        <time>2025-07-12T09:18:41.000Z</time>
      </trkpt>
      <trkpt lat="62.61111975960618" lon="12.2542901869139">
        <ele>938</ele>
        <time>2025-07-12T09:19:03.000Z</time>
      </trkpt>
      <trkpt lat="62.61104328804036" lon="12.25382449498407">
        <ele>936</ele>
        <time>2025-07-12T09:19:20.999Z</time>
      </trkpt>
      <trkpt lat="62.61104433533809" lon="12.25353344628559">
        <ele>936</ele>
        <time>2025-07-12T09:19:30.999Z</time>
      </trkpt>
      <trkpt lat="62.61107826922186" lon="12.25348227516592">
        <ele>936</ele>
        <time>2025-07-12T09:19:33.999Z</time>
      </trkpt>
      <trkpt lat="62.61108316559118" lon="12.25321830257501">
        <ele>935</ele>
        <time>2025-07-12T09:19:43.999Z</time>
      </trkpt>
      <trkpt lat="62.6108248779943" lon="12.25255280294255">
        <ele>932</ele>
        <time>2025-07-12T09:20:19.000Z</time>
      </trkpt>
      <trkpt lat="62.6106266399264" lon="12.25224522370256">
        <ele>930</ele>
        <time>2025-07-12T09:20:39.000Z</time>
      </trkpt>
      <trkpt lat="62.61044924950485" lon="12.25165401072833">
        <ele>928</ele>
        <time>2025-07-12T09:21:03.999Z</time>
      </trkpt>
      <trkpt lat="62.61029015771995" lon="12.25145017921283">
        <ele>927</ele>
        <time>2025-07-12T09:21:16.999Z</time>
      </trkpt>
      <trkpt lat="62.61019436377349" lon="12.25122648305666">
        <ele>926</ele>
        <time>2025-07-12T09:21:27.999Z</time>
      </trkpt>
      <trkpt lat="62.609830401206" lon="12.25096388635833">
        <ele>923</ele>
        <time>2025-07-12T09:22:04.000Z</time>
      </trkpt>
      <trkpt lat="62.60983858564498" lon="12.25086628386276">
        <ele>923</ele>
        <time>2025-07-12T09:22:08.000Z</time>
      </trkpt>
      <trkpt lat="62.60979076573572" lon="12.25059216540801">
        <ele>923</ele>
        <time>2025-07-12T09:22:19.000Z</time>
      </trkpt>
      <trkpt lat="62.60981653561067" lon="12.25028053377373">
        <ele>923</ele>
        <time>2025-07-12T09:22:30.000Z</time>
      </trkpt>
      <trkpt lat="62.60979852334815" lon="12.2501160686683">
        <ele>922</ele>
        <time>2025-07-12T09:22:36.000Z</time>
      </trkpt>
      <trkpt lat="62.60975182516633" lon="12.25006546663425">
        <ele>922</ele>
        <time>2025-07-12T09:22:40.000Z</time>
      </trkpt>
      <trkpt lat="62.60975194238664" lon="12.24965632137476">
        <ele>922</ele>
        <time>2025-07-12T09:22:55.000Z</time>
      </trkpt>
      <trkpt lat="62.60966871202353" lon="12.24943264619228">
        <ele>921</ele>
        <time>2025-07-12T09:23:06.000Z</time>
      </trkpt>
      <trkpt lat="62.60961825851241" lon="12.24942295047403">
        <ele>921</ele>
        <time>2025-07-12T09:23:10.000Z</time>
      </trkpt>
      <trkpt lat="62.60955347883991" lon="12.24924811532911">
        <ele>921</ele>
        <time>2025-07-12T09:23:20.999Z</time>
      </trkpt>
      <trkpt lat="62.60957031632634" lon="12.24926898052902">
        <ele>921</ele>
        <time>2025-07-12T09:23:22.999Z</time>
      </trkpt>
      <trkpt lat="62.60958907821667" lon="12.24918727198671">
        <ele>921</ele>
        <time>2025-07-12T09:23:37.999Z</time>
      </trkpt>
      <trkpt lat="62.60942111030662" lon="12.24882663748316">
        <ele>920</ele>
        <time>2025-07-12T09:25:31.999Z</time>
      </trkpt>
      <trkpt lat="62.60925465732711" lon="12.24874011525117">
        <ele>920</ele>
        <time>2025-07-12T09:25:43.999Z</time>
      </trkpt>
      <trkpt lat="62.60889131792102" lon="12.24877054821331">
        <ele>919</ele>
        <time>2025-07-12T09:26:10.999Z</time>
      </trkpt>
      <trkpt lat="62.60885035077018" lon="12.24870439850831">
        <ele>919</ele>
        <time>2025-07-12T09:26:15.000Z</time>
      </trkpt>
      <trkpt lat="62.60877019274341" lon="12.2481843419838">
        <ele>919</ele>
        <time>2025-07-12T09:26:37.000Z</time>
      </trkpt>
      <trkpt lat="62.60868182800785" lon="12.24795201199035">
        <ele>919</ele>
        <time>2025-07-12T09:26:46.000Z</time>
      </trkpt>
      <trkpt lat="62.60868103756865" lon="12.24770972531107">
        <ele>919</ele>
        <time>2025-07-12T09:26:55.000Z</time>
      </trkpt>
      <trkpt lat="62.60850333813759" lon="12.24704344742536">
        <ele>919</ele>
        <time>2025-07-12T09:27:23.999Z</time>
      </trkpt>
      <trkpt lat="62.60820099414822" lon="12.2466994398591">
        <ele>919</ele>
        <time>2025-07-12T09:27:55.999Z</time>
      </trkpt>
      <trkpt lat="62.60801121596594" lon="12.24658886836318">
        <ele>919</ele>
        <time>2025-07-12T09:28:10.999Z</time>
      </trkpt>
      <trkpt lat="62.60794640739708" lon="12.24639552941751">
        <ele>919</ele>
        <time>2025-07-12T09:28:19.000Z</time>
      </trkpt>
      <trkpt lat="62.6077290102218" lon="12.24606652320154">
        <ele>919</ele>
        <time>2025-07-12T09:28:40.000Z</time>
      </trkpt>
      <trkpt lat="62.6076557962332" lon="12.24606135084629">
        <ele>920</ele>
        <time>2025-07-12T09:28:47.000Z</time>
      </trkpt>
      <trkpt lat="62.60762954089258" lon="12.24606419323196">
        <ele>920</ele>
        <time>2025-07-12T09:30:40.556Z</time>
      </trkpt>
      <trkpt lat="62.60764211435369" lon="12.24618023140235">
        <ele>920</ele>
        <time>2025-07-12T09:30:41.565Z</time>
      </trkpt>
      <trkpt lat="62.60766952842371" lon="12.24610545040625">
        <ele>920</ele>
        <time>2025-07-12T09:30:43.022Z</time>
      </trkpt>
      <trkpt lat="62.60762791273317" lon="12.2460530925943">
        <ele>920</ele>
        <time>2025-07-12T09:30:52.000Z</time>
      </trkpt>
      <trkpt lat="62.60753001808908" lon="12.2460952938179">
        <ele>920</ele>
        <time>2025-07-12T09:31:00.000Z</time>
      </trkpt>
      <trkpt lat="62.60739520441702" lon="12.24602855665348">
        <ele>920</ele>
        <time>2025-07-12T09:31:12.000Z</time>
      </trkpt>
      <trkpt lat="62.60721401536357" lon="12.24607788762107">
        <ele>920</ele>
        <time>2025-07-12T09:31:26.000Z</time>
      </trkpt>
      <trkpt lat="62.60706398713022" lon="12.24602655259107">
        <ele>920</ele>
        <time>2025-07-12T09:31:38.000Z</time>
      </trkpt>
      <trkpt lat="62.60689302130275" lon="12.24579202715135">
        <ele>920</ele>
        <time>2025-07-12T09:31:56.999Z</time>
      </trkpt>
      <trkpt lat="62.60683947096506" lon="12.24545996269129">
        <ele>920</ele>
        <time>2025-07-12T09:32:11.999Z</time>
      </trkpt>
      <trkpt lat="62.60655358314206" lon="12.2449385124567">
        <ele>920</ele>
        <time>2025-07-12T09:32:43.999Z</time>
      </trkpt>
      <trkpt lat="62.60650480056692" lon="12.2447958916979">
        <ele>920</ele>
        <time>2025-07-12T09:32:51.000Z</time>
      </trkpt>
      <trkpt lat="62.60649581850112" lon="12.24484147202728">
        <ele>920</ele>
        <time>2025-07-12T09:32:55.000Z</time>
      </trkpt>
      <trkpt lat="62.60609351321908" lon="12.24413067665654">
        <ele>921</ele>
        <time>2025-07-12T09:33:54.999Z</time>
      </trkpt>
      <trkpt lat="62.60605218067096" lon="12.24384161871355">
        <ele>921</ele>
        <time>2025-07-12T09:34:05.999Z</time>
      </trkpt>
      <trkpt lat="62.60607495219527" lon="12.24373699911902">
        <ele>921</ele>
        <time>2025-07-12T09:34:09.999Z</time>
      </trkpt>
      <trkpt lat="62.6060576851083" lon="12.24357507601478">
        <ele>921</ele>
        <time>2025-07-12T09:34:14.999Z</time>
      </trkpt>
      <trkpt lat="62.60591601057992" lon="12.24306974724721">
        <ele>920</ele>
        <time>2025-07-12T09:34:34.999Z</time>
      </trkpt>
      <trkpt lat="62.60591716500776" lon="12.24297248093129">
        <ele>920</ele>
        <time>2025-07-12T09:34:38.999Z</time>
      </trkpt>
      <trkpt lat="62.60588639715346" lon="12.24292007221799">
        <ele>920</ele>
        <time>2025-07-12T09:34:41.999Z</time>
      </trkpt>
      <trkpt lat="62.60593763594149" lon="12.24284301706566">
        <ele>920</ele>
        <time>2025-07-12T09:34:45.999Z</time>
      </trkpt>
      <trkpt lat="62.60593713987918" lon="12.24267972340942">
        <ele>919</ele>
        <time>2025-07-12T09:34:51.999Z</time>
      </trkpt>
      <trkpt lat="62.60597158061601" lon="12.24254298088858">
        <ele>919</ele>
        <time>2025-07-12T09:34:58.000Z</time>
      </trkpt>
      <trkpt lat="62.60596363747733" lon="12.24236794752684">
        <ele>919</ele>
        <time>2025-07-12T09:35:04.000Z</time>
      </trkpt>
      <trkpt lat="62.60600381351894" lon="12.24225685896675">
        <ele>919</ele>
        <time>2025-07-12T09:35:09.000Z</time>
      </trkpt>
      <trkpt lat="62.60599637530581" lon="12.24213209804715">
        <ele>919</ele>
        <time>2025-07-12T09:35:14.000Z</time>
      </trkpt>
      <trkpt lat="62.60601464243702" lon="12.2420654100026">
        <ele>919</ele>
        <time>2025-07-12T09:35:17.000Z</time>
      </trkpt>
      <trkpt lat="62.60598507087467" lon="12.24189493279724">
        <ele>918</ele>
        <time>2025-07-12T09:35:24.000Z</time>
      </trkpt>
      <trkpt lat="62.60609250880898" lon="12.2411416323653">
        <ele>918</ele>
        <time>2025-07-12T09:35:53.000Z</time>
      </trkpt>
      <trkpt lat="62.60607643283821" lon="12.24105043900024">
        <ele>918</ele>
        <time>2025-07-12T09:35:56.000Z</time>
      </trkpt>
      <trkpt lat="62.60611294091934" lon="12.24072504502037">
        <ele>918</ele>
        <time>2025-07-12T09:36:07.999Z</time>
      </trkpt>
      <trkpt lat="62.60607557807291" lon="12.24035036621469">
        <ele>918</ele>
        <time>2025-07-12T09:36:20.999Z</time>
      </trkpt>
      <trkpt lat="62.60594715605529" lon="12.23983860949135">
        <ele>918</ele>
        <time>2025-07-12T09:36:40.999Z</time>
      </trkpt>
      <trkpt lat="62.6059133246381" lon="12.23944627954142">
        <ele>918</ele>
        <time>2025-07-12T09:36:54.999Z</time>
      </trkpt>
      <trkpt lat="62.60587099186046" lon="12.23923224546476">
        <ele>918</ele>
        <time>2025-07-12T09:37:03.000Z</time>
      </trkpt>
      <trkpt lat="62.60587646290181" lon="12.2388513614835">
        <ele>918</ele>
        <time>2025-07-12T09:37:16.000Z</time>
      </trkpt>
      <trkpt lat="62.6059072017177" lon="12.238752392258">
        <ele>918</ele>
        <time>2025-07-12T09:37:20.000Z</time>
      </trkpt>
      <trkpt lat="62.6059266637897" lon="12.23846904726907">
        <ele>917</ele>
        <time>2025-07-12T09:37:30.000Z</time>
      </trkpt>
      <trkpt lat="62.60587696443821" lon="12.23829191253578">
        <ele>917</ele>
        <time>2025-07-12T09:37:37.000Z</time>
      </trkpt>
      <trkpt lat="62.60587985360341" lon="12.23817000085399">
        <ele>917</ele>
        <time>2025-07-12T09:37:41.000Z</time>
      </trkpt>
      <trkpt lat="62.60582848877818" lon="12.23806251992018">
        <ele>916</ele>
        <time>2025-07-12T09:37:46.000Z</time>
      </trkpt>
      <trkpt lat="62.60576322618049" lon="12.23738346208535">
        <ele>915</ele>
        <time>2025-07-12T09:38:10.999Z</time>
      </trkpt>
      <trkpt lat="62.60570062492422" lon="12.23730410723159">
        <ele>914</ele>
        <time>2025-07-12T09:38:15.999Z</time>
      </trkpt>
      <trkpt lat="62.60563661354092" lon="12.2373450896463">
        <ele>914</ele>
        <time>2025-07-12T09:38:19.999Z</time>
      </trkpt>
      <trkpt lat="62.60517807209386" lon="12.23699391319183">
        <ele>912</ele>
        <time>2025-07-12T09:38:58.999Z</time>
      </trkpt>
      <trkpt lat="62.60511641505812" lon="12.23682321791888">
        <ele>912</ele>
        <time>2025-07-12T09:39:06.999Z</time>
      </trkpt>
      <trkpt lat="62.6049540469445" lon="12.23657507060264">
        <ele>911</ele>
        <time>2025-07-12T09:39:22.000Z</time>
      </trkpt>
      <trkpt lat="62.60494928367667" lon="12.23642849259704">
        <ele>911</ele>
        <time>2025-07-12T09:39:27.000Z</time>
      </trkpt>
      <trkpt lat="62.60485823577807" lon="12.23625569478792">
        <ele>911</ele>
        <time>2025-07-12T09:39:36.000Z</time>
      </trkpt>
      <trkpt lat="62.60479210515378" lon="12.23583261298708">
        <ele>911</ele>
        <time>2025-07-12T09:39:52.000Z</time>
      </trkpt>
      <trkpt lat="62.60469356844138" lon="12.23545357660949">
        <ele>911</ele>
        <time>2025-07-12T09:40:07.000Z</time>
      </trkpt>
      <trkpt lat="62.60469819545153" lon="12.2352396432867">
        <ele>911</ele>
        <time>2025-07-12T09:40:14.999Z</time>
      </trkpt>
      <trkpt lat="62.6046007641257" lon="12.23489009285176">
        <ele>910</ele>
        <time>2025-07-12T09:40:29.999Z</time>
      </trkpt>
      <trkpt lat="62.6045674690627" lon="12.23438115589236">
        <ele>909</ele>
        <time>2025-07-12T09:40:49.999Z</time>
      </trkpt>
      <trkpt lat="62.60439809563635" lon="12.23315751653131">
        <ele>906</ele>
        <time>2025-07-12T09:41:36.000Z</time>
      </trkpt>
      <trkpt lat="62.60442373402827" lon="12.23301468603384">
        <ele>906</ele>
        <time>2025-07-12T09:41:45.000Z</time>
      </trkpt>
      <trkpt lat="62.60438360608553" lon="12.23305210616554">
        <ele>906</ele>
        <time>2025-07-12T09:46:17.557Z</time>
      </trkpt>
      <trkpt lat="62.6044254822921" lon="12.23304971749235">
        <ele>906</ele>
        <time>2025-07-12T09:46:18.560Z</time>
      </trkpt>
      <trkpt lat="62.60448509832051" lon="12.23253311127525">
        <ele>906</ele>
        <time>2025-07-12T09:46:49.000Z</time>
      </trkpt>
      <trkpt lat="62.60445963121597" lon="12.23232044621587">
        <ele>905</ele>
        <time>2025-07-12T09:47:02.000Z</time>
      </trkpt>
      <trkpt lat="62.60448138978948" lon="12.23224513284265">
        <ele>905</ele>
        <time>2025-07-12T09:47:05.000Z</time>
      </trkpt>
      <trkpt lat="62.60443279216491" lon="12.23189655350398">
        <ele>904</ele>
        <time>2025-07-12T09:47:18.999Z</time>
      </trkpt>
      <trkpt lat="62.60447242973179" lon="12.23152564662478">
        <ele>904</ele>
        <time>2025-07-12T09:47:32.999Z</time>
      </trkpt>
      <trkpt lat="62.60443098928503" lon="12.230069181668">
        <ele>902</ele>
        <time>2025-07-12T09:48:24.999Z</time>
      </trkpt>
      <trkpt lat="62.60446748527149" lon="12.22991768732994">
        <ele>903</ele>
        <time>2025-07-12T09:48:31.000Z</time>
      </trkpt>
      <trkpt lat="62.60446142048281" lon="12.22970057843079">
        <ele>903</ele>
        <time>2025-07-12T09:48:39.000Z</time>
      </trkpt>
      <trkpt lat="62.60463341502642" lon="12.22905640950805">
        <ele>903</ele>
        <time>2025-07-12T09:49:04.000Z</time>
      </trkpt>
      <trkpt lat="62.6046716290638" lon="12.22903949591692">
        <ele>904</ele>
        <time>2025-07-12T09:49:10.000Z</time>
      </trkpt>
      <trkpt lat="62.60468675139442" lon="12.22894500449838">
        <ele>904</ele>
        <time>2025-07-12T09:49:14.000Z</time>
      </trkpt>
      <trkpt lat="62.60479757704146" lon="12.22877960313567">
        <ele>904</ele>
        <time>2025-07-12T09:49:24.999Z</time>
      </trkpt>
      <trkpt lat="62.60484192028943" lon="12.22863795291547">
        <ele>905</ele>
        <time>2025-07-12T09:49:30.999Z</time>
      </trkpt>
      <trkpt lat="62.60493249152934" lon="12.22855549371958">
        <ele>905</ele>
        <time>2025-07-12T09:49:39.999Z</time>
      </trkpt>
      <trkpt lat="62.60494561664922" lon="12.22842224211114">
        <ele>905</ele>
        <time>2025-07-12T09:49:44.999Z</time>
      </trkpt>
      <trkpt lat="62.60509870643354" lon="12.22827664871674">
        <ele>906</ele>
        <time>2025-07-12T09:50:10.999Z</time>
      </trkpt>
      <trkpt lat="62.60517303902376" lon="12.22796655942184">
        <ele>907</ele>
        <time>2025-07-12T09:50:25.999Z</time>
      </trkpt>
      <trkpt lat="62.60529397850692" lon="12.22771332722017">
        <ele>908</ele>
        <time>2025-07-12T09:50:38.000Z</time>
      </trkpt>
      <trkpt lat="62.60531794475985" lon="12.22730513930075">
        <ele>908</ele>
        <time>2025-07-12T09:50:52.000Z</time>
      </trkpt>
      <trkpt lat="62.60539946714281" lon="12.22713320757635">
        <ele>909</ele>
        <time>2025-07-12T09:51:00.000Z</time>
      </trkpt>
      <trkpt lat="62.60539808891183" lon="12.22678529219881">
        <ele>909</ele>
        <time>2025-07-12T09:51:12.000Z</time>
      </trkpt>
      <trkpt lat="62.60544202277621" lon="12.22663349214664">
        <ele>909</ele>
        <time>2025-07-12T09:51:18.000Z</time>
      </trkpt>
      <trkpt lat="62.60544349946351" lon="12.22651333572917">
        <ele>909</ele>
        <time>2025-07-12T09:51:21.999Z</time>
      </trkpt>
      <trkpt lat="62.60550047115733" lon="12.22625368484915">
        <ele>909</ele>
        <time>2025-07-12T09:51:32.999Z</time>
      </trkpt>
      <trkpt lat="62.60551093810966" lon="12.22606548949676">
        <ele>910</ele>
        <time>2025-07-12T09:51:39.999Z</time>
      </trkpt>
      <trkpt lat="62.60568268309294" lon="12.22557948883634">
        <ele>910</ele>
        <time>2025-07-12T09:52:03.999Z</time>
      </trkpt>
      <trkpt lat="62.60562311546364" lon="12.2255192345671">
        <ele>910</ele>
        <time>2025-07-12T09:52:07.999Z</time>
      </trkpt>
      <trkpt lat="62.60563852605498" lon="12.22531808231063">
        <ele>910</ele>
        <time>2025-07-12T09:52:16.999Z</time>
      </trkpt>
      <trkpt lat="62.60559236446148" lon="12.22519008165706">
        <ele>910</ele>
        <time>2025-07-12T09:52:22.999Z</time>
      </trkpt>
      <trkpt lat="62.60551700562159" lon="12.2244167703832">
        <ele>910</ele>
        <time>2025-07-12T09:52:52.000Z</time>
      </trkpt>
      <trkpt lat="62.60542113249464" lon="12.22421146929721">
        <ele>910</ele>
        <time>2025-07-12T09:53:02.000Z</time>
      </trkpt>
      <trkpt lat="62.60535229459585" lon="12.22386811448709">
        <ele>910</ele>
        <time>2025-07-12T09:53:15.000Z</time>
      </trkpt>
      <trkpt lat="62.605283579594" lon="12.22373031782383">
        <ele>910</ele>
        <time>2025-07-12T09:53:22.000Z</time>
      </trkpt>
      <trkpt lat="62.60509854328267" lon="12.22356233912711">
        <ele>910</ele>
        <time>2025-07-12T09:53:36.999Z</time>
      </trkpt>
      <trkpt lat="62.60498319784215" lon="12.22323859008153">
        <ele>910</ele>
        <time>2025-07-12T09:53:52.999Z</time>
      </trkpt>
      <trkpt lat="62.60490061826312" lon="12.22178629290379">
        <ele>911</ele>
        <time>2025-07-12T09:54:41.999Z</time>
      </trkpt>
      <trkpt lat="62.6048648794718" lon="12.22162677044344">
        <ele>911</ele>
        <time>2025-07-12T09:54:48.000Z</time>
      </trkpt>
      <trkpt lat="62.60489781385451" lon="12.22151791789202">
        <ele>912</ele>
        <time>2025-07-12T09:54:52.000Z</time>
      </trkpt>
      <trkpt lat="62.60491066219679" lon="12.22125378995405">
        <ele>912</ele>
        <time>2025-07-12T09:55:02.000Z</time>
      </trkpt>
      <trkpt lat="62.60488656973981" lon="12.22112177452738">
        <ele>913</ele>
        <time>2025-07-12T09:55:07.000Z</time>
      </trkpt>
      <trkpt lat="62.60488368029026" lon="12.22067433148585">
        <ele>914</ele>
        <time>2025-07-12T09:55:23.000Z</time>
      </trkpt>
      <trkpt lat="62.60485243641021" lon="12.22049783164251">
        <ele>914</ele>
        <time>2025-07-12T09:55:29.000Z</time>
      </trkpt>
      <trkpt lat="62.60483978373556" lon="12.22000621353759">
        <ele>915</ele>
        <time>2025-07-12T09:55:45.999Z</time>
      </trkpt>
      <trkpt lat="62.60477100367471" lon="12.21967745235235">
        <ele>916</ele>
        <time>2025-07-12T09:55:58.999Z</time>
      </trkpt>
      <trkpt lat="62.6047897470349" lon="12.21957185755013">
        <ele>916</ele>
        <time>2025-07-12T09:56:02.999Z</time>
      </trkpt>
      <trkpt lat="62.60477628429751" lon="12.21911476411837">
        <ele>917</ele>
        <time>2025-07-12T09:56:18.999Z</time>
      </trkpt>
      <trkpt lat="62.6048114876475" lon="12.21899503296067">
        <ele>918</ele>
        <time>2025-07-12T09:56:23.999Z</time>
      </trkpt>
      <trkpt lat="62.60476413733285" lon="12.21875673575395">
        <ele>918</ele>
        <time>2025-07-12T09:56:31.999Z</time>
      </trkpt>
      <trkpt lat="62.6047503707694" lon="12.21856143748677">
        <ele>919</ele>
        <time>2025-07-12T09:56:38.999Z</time>
      </trkpt>
      <trkpt lat="62.60460475111291" lon="12.21821025066806">
        <ele>919</ele>
        <time>2025-07-12T09:56:58.000Z</time>
      </trkpt>
      <trkpt lat="62.60449709114828" lon="12.21776980012618">
        <ele>920</ele>
        <time>2025-07-12T09:57:14.000Z</time>
      </trkpt>
      <trkpt lat="62.60448351596575" lon="12.21762391561126">
        <ele>921</ele>
        <time>2025-07-12T09:57:20.000Z</time>
      </trkpt>
      <trkpt lat="62.60450554713628" lon="12.21755491699108">
        <ele>921</ele>
        <time>2025-07-12T09:57:23.000Z</time>
      </trkpt>
      <trkpt lat="62.60446236102464" lon="12.21725329939303">
        <ele>921</ele>
        <time>2025-07-12T09:57:34.000Z</time>
      </trkpt>
      <trkpt lat="62.60449559308726" lon="12.21705614773789">
        <ele>921</ele>
        <time>2025-07-12T09:57:41.000Z</time>
      </trkpt>
      <trkpt lat="62.60443378027804" lon="12.21673214578364">
        <ele>921</ele>
        <time>2025-07-12T09:57:52.999Z</time>
      </trkpt>
      <trkpt lat="62.60443120655607" lon="12.21655807108658">
        <ele>921</ele>
        <time>2025-07-12T09:57:58.999Z</time>
      </trkpt>
      <trkpt lat="62.6043691588283" lon="12.21615914712112">
        <ele>921</ele>
        <time>2025-07-12T09:58:12.999Z</time>
      </trkpt>
      <trkpt lat="62.60430918567614" lon="12.21604556599262">
        <ele>921</ele>
        <time>2025-07-12T09:58:18.999Z</time>
      </trkpt>
      <trkpt lat="62.6042827081019" lon="12.21582904760026">
        <ele>921</ele>
        <time>2025-07-12T09:58:26.999Z</time>
      </trkpt>
      <trkpt lat="62.60423574553025" lon="12.2157623046173">
        <ele>921</ele>
        <time>2025-07-12T09:58:31.999Z</time>
      </trkpt>
      <trkpt lat="62.60417216940216" lon="12.21526187978978">
        <ele>920</ele>
        <time>2025-07-12T09:58:51.999Z</time>
      </trkpt>
      <trkpt lat="62.60436908957653" lon="12.21524108106301">
        <ele>921</ele>
        <time>2025-07-12T09:59:05.000Z</time>
      </trkpt>
      <trkpt lat="62.60444657920331" lon="12.21518377661122">
        <ele>921</ele>
        <time>2025-07-12T09:59:12.000Z</time>
      </trkpt>
      <trkpt lat="62.60450051689911" lon="12.21521633139229">
        <ele>921</ele>
        <time>2025-07-12T09:59:16.000Z</time>
      </trkpt>
      <trkpt lat="62.60471538307404" lon="12.21501449271353">
        <ele>921</ele>
        <time>2025-07-12T09:59:34.000Z</time>
      </trkpt>
      <trkpt lat="62.60477693164826" lon="12.21505736610399">
        <ele>921</ele>
        <time>2025-07-12T09:59:39.000Z</time>
      </trkpt>
      <trkpt lat="62.60484474276064" lon="12.21493168905784">
        <ele>921</ele>
        <time>2025-07-12T09:59:46.000Z</time>
      </trkpt>
      <trkpt lat="62.60488816111316" lon="12.21494125998089">
        <ele>921</ele>
        <time>2025-07-12T09:59:49.000Z</time>
      </trkpt>
      <trkpt lat="62.60491585582959" lon="12.21487503724731">
        <ele>921</ele>
        <time>2025-07-12T09:59:51.999Z</time>
      </trkpt>
      <trkpt lat="62.60506526029727" lon="12.2149603500474">
        <ele>922</ele>
        <time>2025-07-12T10:00:03.999Z</time>
      </trkpt>
      <trkpt lat="62.60508546253641" lon="12.2151100665176">
        <ele>922</ele>
        <time>2025-07-12T10:00:08.999Z</time>
      </trkpt>
      <trkpt lat="62.60517426691268" lon="12.21520891905063">
        <ele>922</ele>
        <time>2025-07-12T10:00:15.999Z</time>
      </trkpt>
      <trkpt lat="62.60535389301126" lon="12.21529416949906">
        <ele>923</ele>
        <time>2025-07-12T10:00:31.999Z</time>
      </trkpt>
      <trkpt lat="62.60539477356561" lon="12.21544262766998">
        <ele>923</ele>
        <time>2025-07-12T10:00:37.999Z</time>
      </trkpt>
      <trkpt lat="62.60551879258288" lon="12.21531855603507">
        <ele>923</ele>
        <time>2025-07-12T10:00:48.999Z</time>
      </trkpt>
      <trkpt lat="62.60567926975693" lon="12.21539752291461">
        <ele>923</ele>
        <time>2025-07-12T10:01:00.999Z</time>
      </trkpt>
      <trkpt lat="62.60582146258192" lon="12.21535199125204">
        <ele>924</ele>
        <time>2025-07-12T10:01:12.000Z</time>
      </trkpt>
      <trkpt lat="62.60596307925056" lon="12.21541366446947">
        <ele>924</ele>
        <time>2025-07-12T10:01:24.000Z</time>
      </trkpt>
      <trkpt lat="62.60607262993186" lon="12.21536523268905">
        <ele>925</ele>
        <time>2025-07-12T10:01:33.000Z</time>
      </trkpt>
      <trkpt lat="62.60636691784089" lon="12.21556905969633">
        <ele>925</ele>
        <time>2025-07-12T10:01:58.000Z</time>
      </trkpt>
      <trkpt lat="62.60645957828542" lon="12.21556258745608">
        <ele>925</ele>
        <time>2025-07-12T10:02:04.999Z</time>
      </trkpt>
      <trkpt lat="62.60691370058709" lon="12.21629099496645">
        <ele>924</ele>
        <time>2025-07-12T10:02:49.999Z</time>
      </trkpt>
      <trkpt lat="62.60710205385333" lon="12.2169274170893">
        <ele>922</ele>
        <time>2025-07-12T10:03:19.000Z</time>
      </trkpt>
      <trkpt lat="62.60709815272757" lon="12.21701472377711">
        <ele>922</ele>
        <time>2025-07-12T10:03:22.000Z</time>
      </trkpt>
      <trkpt lat="62.60736964498896" lon="12.21774334675652">
        <ele>920</ele>
        <time>2025-07-12T10:03:52.000Z</time>
      </trkpt>
      <trkpt lat="62.60744634110444" lon="12.21783241302824">
        <ele>920</ele>
        <time>2025-07-12T10:03:59.000Z</time>
      </trkpt>
      <trkpt lat="62.60748002503978" lon="12.21815225448072">
        <ele>919</ele>
        <time>2025-07-12T10:04:09.999Z</time>
      </trkpt>
      <trkpt lat="62.60752182567284" lon="12.21829953348239">
        <ele>918</ele>
        <time>2025-07-12T10:04:15.999Z</time>
      </trkpt>
      <trkpt lat="62.60771164591524" lon="12.21863170747194">
        <ele>919</ele>
        <time>2025-07-12T10:04:33.999Z</time>
      </trkpt>
      <trkpt lat="62.60770553600656" lon="12.21887327600921">
        <ele>919</ele>
        <time>2025-07-12T10:04:41.999Z</time>
      </trkpt>
      <trkpt lat="62.60779473537514" lon="12.2190776136756">
        <ele>919</ele>
        <time>2025-07-12T10:04:51.999Z</time>
      </trkpt>
      <trkpt lat="62.60783505111741" lon="12.21933609295201">
        <ele>919</ele>
        <time>2025-07-12T10:05:02.999Z</time>
      </trkpt>
      <trkpt lat="62.60789135290936" lon="12.21933445439987">
        <ele>920</ele>
        <time>2025-07-12T10:05:06.999Z</time>
      </trkpt>
      <trkpt lat="62.6079873957562" lon="12.21947358987259">
        <ele>920</ele>
        <time>2025-07-12T10:05:16.000Z</time>
      </trkpt>
      <trkpt lat="62.60804041189914" lon="12.21947461818202">
        <ele>921</ele>
        <time>2025-07-12T10:05:20.000Z</time>
      </trkpt>
      <trkpt lat="62.60815567005262" lon="12.21971143718814">
        <ele>922</ele>
        <time>2025-07-12T10:05:33.000Z</time>
      </trkpt>
      <trkpt lat="62.60826372361664" lon="12.21982599633744">
        <ele>923</ele>
        <time>2025-07-12T10:05:43.000Z</time>
      </trkpt>
      <trkpt lat="62.60828026008224" lon="12.21990493931981">
        <ele>923</ele>
        <time>2025-07-12T10:05:46.000Z</time>
      </trkpt>
      <trkpt lat="62.60836009014785" lon="12.21995723315648">
        <ele>924</ele>
        <time>2025-07-12T10:05:52.000Z</time>
      </trkpt>
      <trkpt lat="62.60842340911482" lon="12.2201311746027">
        <ele>925</ele>
        <time>2025-07-12T10:06:01.000Z</time>
      </trkpt>
      <trkpt lat="62.60846070616928" lon="12.22033575444508">
        <ele>926</ele>
        <time>2025-07-12T10:06:08.999Z</time>
      </trkpt>
      <trkpt lat="62.60861484876162" lon="12.22066059088522">
        <ele>928</ele>
        <time>2025-07-12T10:06:23.999Z</time>
      </trkpt>
      <trkpt lat="62.60874781299267" lon="12.22081588962931">
        <ele>929</ele>
        <time>2025-07-12T10:06:35.999Z</time>
      </trkpt>
      <trkpt lat="62.60890506318336" lon="12.22115753424843">
        <ele>931</ele>
        <time>2025-07-12T10:06:52.999Z</time>
      </trkpt>
      <trkpt lat="62.60894589537005" lon="12.22118399655855">
        <ele>932</ele>
        <time>2025-07-12T10:06:55.999Z</time>
      </trkpt>
      <trkpt lat="62.60909987747511" lon="12.22156903221638">
        <ele>934</ele>
        <time>2025-07-12T10:07:12.999Z</time>
      </trkpt>
      <trkpt lat="62.60914403816793" lon="12.22176022601404">
        <ele>934</ele>
        <time>2025-07-12T10:07:19.999Z</time>
      </trkpt>
      <trkpt lat="62.60920427728674" lon="12.22183793316151">
        <ele>935</ele>
        <time>2025-07-12T10:07:25.000Z</time>
      </trkpt>
      <trkpt lat="62.6093046040959" lon="12.22232229919755">
        <ele>936</ele>
        <time>2025-07-12T10:07:46.000Z</time>
      </trkpt>
      <trkpt lat="62.60963537063493" lon="12.22248018278938">
        <ele>937</ele>
        <time>2025-07-12T10:08:11.999Z</time>
      </trkpt>
      <trkpt lat="62.60985068956602" lon="12.22275412274207">
        <ele>937</ele>
        <time>2025-07-12T10:08:33.999Z</time>
      </trkpt>
      <trkpt lat="62.60995802556483" lon="12.22297880642525">
        <ele>937</ele>
        <time>2025-07-12T10:08:44.999Z</time>
      </trkpt>
      <trkpt lat="62.61012508553609" lon="12.22277121202518">
        <ele>937</ele>
        <time>2025-07-12T10:08:58.999Z</time>
      </trkpt>
      <trkpt lat="62.61025319840199" lon="12.22248846936578">
        <ele>938</ele>
        <time>2025-07-12T10:09:12.999Z</time>
      </trkpt>
      <trkpt lat="62.61029322653376" lon="12.22248799375076">
        <ele>938</ele>
        <time>2025-07-12T10:09:15.999Z</time>
      </trkpt>
      <trkpt lat="62.61036619844535" lon="12.22260400498807">
        <ele>938</ele>
        <time>2025-07-12T10:09:22.999Z</time>
      </trkpt>
      <trkpt lat="62.61039851184774" lon="12.22290137626423">
        <ele>937</ele>
        <time>2025-07-12T10:09:34.000Z</time>
      </trkpt>
      <trkpt lat="62.61069051151357" lon="12.22318769646791">
        <ele>935</ele>
        <time>2025-07-12T10:09:58.000Z</time>
      </trkpt>
      <trkpt lat="62.61086252865639" lon="12.22304900221073">
        <ele>935</ele>
        <time>2025-07-12T10:10:11.000Z</time>
      </trkpt>
      <trkpt lat="62.61103684478677" lon="12.22314143842851">
        <ele>934</ele>
        <time>2025-07-12T10:10:24.999Z</time>
      </trkpt>
      <trkpt lat="62.61127271725859" lon="12.22290707048434">
        <ele>933</ele>
        <time>2025-07-12T10:10:43.999Z</time>
      </trkpt>
      <trkpt lat="62.61132706369354" lon="12.22293577695402">
        <ele>933</ele>
        <time>2025-07-12T10:10:47.999Z</time>
      </trkpt>
      <trkpt lat="62.61137717668608" lon="12.22284760105277">
        <ele>933</ele>
        <time>2025-07-12T10:10:52.999Z</time>
      </trkpt>
      <trkpt lat="62.61144709658075" lon="12.22285664203884">
        <ele>932</ele>
        <time>2025-07-12T10:10:57.999Z</time>
      </trkpt>
      <trkpt lat="62.61164899972926" lon="12.22248678700997">
        <ele>932</ele>
        <time>2025-07-12T10:11:18.999Z</time>
      </trkpt>
      <trkpt lat="62.61186647357608" lon="12.22249462330561">
        <ele>931</ele>
        <time>2025-07-12T10:11:38.000Z</time>
      </trkpt>
      <trkpt lat="62.61197217207546" lon="12.22270125737122">
        <ele>930</ele>
        <time>2025-07-12T10:11:52.000Z</time>
      </trkpt>
      <trkpt lat="62.61219531761292" lon="12.22284297999339">
        <ele>929</ele>
        <time>2025-07-12T10:12:10.000Z</time>
      </trkpt>
      <trkpt lat="62.61234786039536" lon="12.2227413797638">
        <ele>928</ele>
        <time>2025-07-12T10:12:37.999Z</time>
      </trkpt>
      <trkpt lat="62.61243734110489" lon="12.22277940002271">
        <ele>928</ele>
        <time>2025-07-12T10:12:44.999Z</time>
      </trkpt>
      <trkpt lat="62.61252629533586" lon="12.22292259464672">
        <ele>927</ele>
        <time>2025-07-12T10:12:53.999Z</time>
      </trkpt>
      <trkpt lat="62.6125714326087" lon="12.22331999619683">
        <ele>926</ele>
        <time>2025-07-12T10:13:08.999Z</time>
      </trkpt>
      <trkpt lat="62.61270357759533" lon="12.22355426484732">
        <ele>924</ele>
        <time>2025-07-12T10:13:21.999Z</time>
      </trkpt>
      <trkpt lat="62.6127289314963" lon="12.22371824861289">
        <ele>924</ele>
        <time>2025-07-12T10:13:28.999Z</time>
      </trkpt>
      <trkpt lat="62.61286142613562" lon="12.2238987822472">
        <ele>923</ele>
        <time>2025-07-12T10:13:42.000Z</time>
      </trkpt>
      <trkpt lat="62.61336524980855" lon="12.22362932155419">
        <ele>923</ele>
        <time>2025-07-12T10:14:36.999Z</time>
      </trkpt>
      <trkpt lat="62.61342758272964" lon="12.22322722191208">
        <ele>924</ele>
        <time>2025-07-12T10:14:57.999Z</time>
      </trkpt>
      <trkpt lat="62.61357946295487" lon="12.22291611665668">
        <ele>925</ele>
        <time>2025-07-12T10:15:11.999Z</time>
      </trkpt>
      <trkpt lat="62.61363146444113" lon="12.22237089633017">
        <ele>927</ele>
        <time>2025-07-12T10:15:29.999Z</time>
      </trkpt>
      <trkpt lat="62.61376308799152" lon="12.22220345027944">
        <ele>928</ele>
        <time>2025-07-12T10:15:40.999Z</time>
      </trkpt>
      <trkpt lat="62.6138367690485" lon="12.2217398726155">
        <ele>930</ele>
        <time>2025-07-12T10:15:57.000Z</time>
      </trkpt>
      <trkpt lat="62.61389150957113" lon="12.22166081851447">
        <ele>931</ele>
        <time>2025-07-12T10:16:02.000Z</time>
      </trkpt>
      <trkpt lat="62.61408353503411" lon="12.22163238148429">
        <ele>931</ele>
        <time>2025-07-12T10:16:16.000Z</time>
      </trkpt>
      <trkpt lat="62.6141276987841" lon="12.22153501172609">
        <ele>932</ele>
        <time>2025-07-12T10:16:21.000Z</time>
      </trkpt>
      <trkpt lat="62.61417276972475" lon="12.22157379903509">
        <ele>932</ele>
        <time>2025-07-12T10:16:32.000Z</time>
      </trkpt>
      <trkpt lat="62.61418113963231" lon="12.22170233412139">
        <ele>931</ele>
        <time>2025-07-12T10:16:37.999Z</time>
      </trkpt>
      <trkpt lat="62.61426099911494" lon="12.22192115418274">
        <ele>931</ele>
        <time>2025-07-12T10:16:48.999Z</time>
      </trkpt>
      <trkpt lat="62.61427632280987" lon="12.22204778625532">
        <ele>930</ele>
        <time>2025-07-12T10:16:52.999Z</time>
      </trkpt>
      <trkpt lat="62.61422962272064" lon="12.22227954456856">
        <ele>929</ele>
        <time>2025-07-12T10:17:01.999Z</time>
      </trkpt>
      <trkpt lat="62.61435410046795" lon="12.222820059599">
        <ele>927</ele>
        <time>2025-07-12T10:17:21.999Z</time>
      </trkpt>
      <trkpt lat="62.61454260919514" lon="12.22314523942709">
        <ele>926</ele>
        <time>2025-07-12T10:17:39.999Z</time>
      </trkpt>
      <trkpt lat="62.6147569421702" lon="12.22388851087951">
        <ele>924</ele>
        <time>2025-07-12T10:18:10.000Z</time>
      </trkpt>
      <trkpt lat="62.61475694245735" lon="12.22409736038941">
        <ele>923</ele>
        <time>2025-07-12T10:18:18.000Z</time>
      </trkpt>
      <trkpt lat="62.61471201327153" lon="12.22430652394092">
        <ele>922</ele>
        <time>2025-07-12T10:18:28.000Z</time>
      </trkpt>
      <trkpt lat="62.61470900234956" lon="12.22419670613922">
        <ele>922</ele>
        <time>2025-07-12T10:38:34.001Z</time>
      </trkpt>
      <trkpt lat="62.61476811445502" lon="12.22390805802579">
        <ele>924</ele>
        <time>2025-07-12T10:38:46.000Z</time>
      </trkpt>
      <trkpt lat="62.61470878332469" lon="12.22360868934159">
        <ele>925</ele>
        <time>2025-07-12T10:38:59.000Z</time>
      </trkpt>
      <trkpt lat="62.61459001553301" lon="12.22317681192189">
        <ele>926</ele>
        <time>2025-07-12T10:39:16.000Z</time>
      </trkpt>
      <trkpt lat="62.61437375978084" lon="12.22278302700924">
        <ele>927</ele>
        <time>2025-07-12T10:39:36.999Z</time>
      </trkpt>
      <trkpt lat="62.61425061035906" lon="12.22225397398092">
        <ele>929</ele>
        <time>2025-07-12T10:39:57.999Z</time>
      </trkpt>
      <trkpt lat="62.61429019579687" lon="12.22202328209851">
        <ele>930</ele>
        <time>2025-07-12T10:40:05.999Z</time>
      </trkpt>
      <trkpt lat="62.61426876719742" lon="12.22186797770188">
        <ele>931</ele>
        <time>2025-07-12T10:40:12.999Z</time>
      </trkpt>
      <trkpt lat="62.61417811138172" lon="12.22164674235081">
        <ele>931</ele>
        <time>2025-07-12T10:40:22.999Z</time>
      </trkpt>
      <trkpt lat="62.61416364962172" lon="12.22133510920373">
        <ele>933</ele>
        <time>2025-07-12T10:40:34.999Z</time>
      </trkpt>
      <trkpt lat="62.61419057216832" lon="12.22111806590466">
        <ele>934</ele>
        <time>2025-07-12T10:40:44.000Z</time>
      </trkpt>
      <trkpt lat="62.61429222936513" lon="12.22093761711365">
        <ele>936</ele>
        <time>2025-07-12T10:40:54.000Z</time>
      </trkpt>
      <trkpt lat="62.61432686794501" lon="12.22070707875472">
        <ele>937</ele>
        <time>2025-07-12T10:41:02.000Z</time>
      </trkpt>
      <trkpt lat="62.61423410066676" lon="12.22052519885012">
        <ele>937</ele>
        <time>2025-07-12T10:41:10.000Z</time>
      </trkpt>
      <trkpt lat="62.61418841701706" lon="12.22029480402923">
        <ele>938</ele>
        <time>2025-07-12T10:41:18.000Z</time>
      </trkpt>
      <trkpt lat="62.61424582209943" lon="12.2199617783423">
        <ele>939</ele>
        <time>2025-07-12T10:41:30.999Z</time>
      </trkpt>
      <trkpt lat="62.61417454944025" lon="12.21945455483394">
        <ele>938</ele>
        <time>2025-07-12T10:41:47.999Z</time>
      </trkpt>
      <trkpt lat="62.61415596927757" lon="12.21898726811365">
        <ele>938</ele>
        <time>2025-07-12T10:42:03.999Z</time>
      </trkpt>
      <trkpt lat="62.61409454118981" lon="12.21854860508352">
        <ele>938</ele>
        <time>2025-07-12T10:42:18.999Z</time>
      </trkpt>
      <trkpt lat="62.61411124674382" lon="12.21844323908722">
        <ele>938</ele>
        <time>2025-07-12T10:42:21.999Z</time>
      </trkpt>
      <trkpt lat="62.61408482204622" lon="12.21836200172159">
        <ele>938</ele>
        <time>2025-07-12T10:42:24.999Z</time>
      </trkpt>
      <trkpt lat="62.61408848777145" lon="12.2181333530315">
        <ele>938</ele>
        <time>2025-07-12T10:42:33.999Z</time>
      </trkpt>
      <trkpt lat="62.61400353447102" lon="12.21781212465375">
        <ele>938</ele>
        <time>2025-07-12T10:42:46.000Z</time>
      </trkpt>
      <trkpt lat="62.61398082431247" lon="12.21759964464859">
        <ele>938</ele>
        <time>2025-07-12T10:42:53.000Z</time>
      </trkpt>
      <trkpt lat="62.61381429578659" lon="12.21713954697456">
        <ele>939</ele>
        <time>2025-07-12T10:43:15.000Z</time>
      </trkpt>
      <trkpt lat="62.61365593369487" lon="12.21708430729628">
        <ele>939</ele>
        <time>2025-07-12T10:43:28.000Z</time>
      </trkpt>
      <trkpt lat="62.61349347962684" lon="12.21710685908779">
        <ele>939</ele>
        <time>2025-07-12T10:43:39.999Z</time>
      </trkpt>
      <trkpt lat="62.61335389869681" lon="12.21670574284066">
        <ele>939</ele>
        <time>2025-07-12T10:43:57.999Z</time>
      </trkpt>
      <trkpt lat="62.61293333518459" lon="12.21588763642937">
        <ele>942</ele>
        <time>2025-07-12T10:44:40.999Z</time>
      </trkpt>
      <trkpt lat="62.6128557396898" lon="12.21586904408812">
        <ele>942</ele>
        <time>2025-07-12T10:45:03.000Z</time>
      </trkpt>
      <trkpt lat="62.61261135317741" lon="12.21541449691376">
        <ele>944</ele>
        <time>2025-07-12T10:45:25.000Z</time>
      </trkpt>
      <trkpt lat="62.6125579871701" lon="12.21515551342486">
        <ele>945</ele>
        <time>2025-07-12T10:45:35.000Z</time>
      </trkpt>
      <trkpt lat="62.61254452292754" lon="12.21462048553739">
        <ele>947</ele>
        <time>2025-07-12T10:45:51.999Z</time>
      </trkpt>
      <trkpt lat="62.61241302523685" lon="12.2139431275938">
        <ele>949</ele>
        <time>2025-07-12T10:46:14.999Z</time>
      </trkpt>
      <trkpt lat="62.61231370284434" lon="12.21361415353821">
        <ele>950</ele>
        <time>2025-07-12T10:46:26.999Z</time>
      </trkpt>
      <trkpt lat="62.61221516757826" lon="12.21346502283152">
        <ele>949</ele>
        <time>2025-07-12T10:46:34.999Z</time>
      </trkpt>
      <trkpt lat="62.61199726428822" lon="12.21331729460325">
        <ele>948</ele>
        <time>2025-07-12T10:46:49.999Z</time>
      </trkpt>
      <trkpt lat="62.61193418940452" lon="12.21321020877197">
        <ele>947</ele>
        <time>2025-07-12T10:46:56.000Z</time>
      </trkpt>
      <trkpt lat="62.6117582413267" lon="12.21256566022855">
        <ele>947</ele>
        <time>2025-07-12T10:47:21.000Z</time>
      </trkpt>
      <trkpt lat="62.61154918614249" lon="12.21244674746802">
        <ele>945</ele>
        <time>2025-07-12T10:47:36.000Z</time>
      </trkpt>
      <trkpt lat="62.61140712500483" lon="12.21247714066838">
        <ele>944</ele>
        <time>2025-07-12T10:47:46.000Z</time>
      </trkpt>
      <trkpt lat="62.61124362748527" lon="12.21239528527649">
        <ele>943</ele>
        <time>2025-07-12T10:47:58.999Z</time>
      </trkpt>
      <trkpt lat="62.61115440959865" lon="12.21251016816812">
        <ele>942</ele>
        <time>2025-07-12T10:48:06.999Z</time>
      </trkpt>
      <trkpt lat="62.61108071052475" lon="12.21253395815663">
        <ele>942</ele>
        <time>2025-07-12T10:48:12.999Z</time>
      </trkpt>
      <trkpt lat="62.61093222922922" lon="12.21284692458036">
        <ele>941</ele>
        <time>2025-07-12T10:48:27.999Z</time>
      </trkpt>
      <trkpt lat="62.61086882503527" lon="12.21311125748638">
        <ele>940</ele>
        <time>2025-07-12T10:48:37.999Z</time>
      </trkpt>
      <trkpt lat="62.6107432349948" lon="12.21345869900177">
        <ele>940</ele>
        <time>2025-07-12T10:48:51.999Z</time>
      </trkpt>
      <trkpt lat="62.61060414052119" lon="12.21372678437592">
        <ele>939</ele>
        <time>2025-07-12T10:49:05.000Z</time>
      </trkpt>
      <trkpt lat="62.61052450397791" lon="12.21372393520416">
        <ele>939</ele>
        <time>2025-07-12T10:49:11.000Z</time>
      </trkpt>
      <trkpt lat="62.61036141024206" lon="12.2134202923958">
        <ele>939</ele>
        <time>2025-07-12T10:49:25.000Z</time>
      </trkpt>
      <trkpt lat="62.61017550524569" lon="12.21277141439596">
        <ele>939</ele>
        <time>2025-07-12T10:49:51.000Z</time>
      </trkpt>
      <trkpt lat="62.61006955597965" lon="12.21257022514616">
        <ele>939</ele>
        <time>2025-07-12T10:50:01.000Z</time>
      </trkpt>
      <trkpt lat="62.60982788147601" lon="12.21240860154341">
        <ele>939</ele>
        <time>2025-07-12T10:50:18.999Z</time>
      </trkpt>
      <trkpt lat="62.6097869744276" lon="12.21228259831643">
        <ele>939</ele>
        <time>2025-07-12T10:50:23.999Z</time>
      </trkpt>
      <trkpt lat="62.60968203622505" lon="12.21216944764782">
        <ele>940</ele>
        <time>2025-07-12T10:50:32.999Z</time>
      </trkpt>
      <trkpt lat="62.6094189328991" lon="12.21127330670878">
        <ele>941</ele>
        <time>2025-07-12T10:51:10.000Z</time>
      </trkpt>
      <trkpt lat="62.60926462441548" lon="12.21085568189714">
        <ele>941</ele>
        <time>2025-07-12T10:51:27.000Z</time>
      </trkpt>
      <trkpt lat="62.60895656035013" lon="12.21042851468674">
        <ele>941</ele>
        <time>2025-07-12T10:51:53.000Z</time>
      </trkpt>
      <trkpt lat="62.60874397178647" lon="12.21031776976027">
        <ele>941</ele>
        <time>2025-07-12T10:52:08.999Z</time>
      </trkpt>
      <trkpt lat="62.60845339206878" lon="12.21027563279278">
        <ele>941</ele>
        <time>2025-07-12T10:52:29.999Z</time>
      </trkpt>
      <trkpt lat="62.6082507933811" lon="12.21015458227445">
        <ele>941</ele>
        <time>2025-07-12T10:52:44.999Z</time>
      </trkpt>
      <trkpt lat="62.60806420287586" lon="12.21013561666379">
        <ele>940</ele>
        <time>2025-07-12T10:52:58.999Z</time>
      </trkpt>
      <trkpt lat="62.6065255250831" lon="12.20856403848779">
        <ele>933</ele>
        <time>2025-07-12T10:54:59.999Z</time>
      </trkpt>
      <trkpt lat="62.60630442692121" lon="12.20799917946331">
        <ele>932</ele>
        <time>2025-07-12T10:55:25.000Z</time>
      </trkpt>
      <trkpt lat="62.60623711249637" lon="12.20734725795777">
        <ele>931</ele>
        <time>2025-07-12T10:55:46.000Z</time>
      </trkpt>
      <trkpt lat="62.60627493589162" lon="12.20656964002096">
        <ele>932</ele>
        <time>2025-07-12T10:56:12.000Z</time>
      </trkpt>
      <trkpt lat="62.60617963125095" lon="12.20601771990431">
        <ele>933</ele>
        <time>2025-07-12T10:56:30.999Z</time>
      </trkpt>
      <trkpt lat="62.60615510794708" lon="12.20548261655248">
        <ele>933</ele>
        <time>2025-07-12T10:56:47.999Z</time>
      </trkpt>
      <trkpt lat="62.60608152941587" lon="12.20512795608558">
        <ele>933</ele>
        <time>2025-07-12T10:57:00.999Z</time>
      </trkpt>
      <trkpt lat="62.60589350360127" lon="12.20470543161714">
        <ele>933</ele>
        <time>2025-07-12T10:57:19.999Z</time>
      </trkpt>
      <trkpt lat="62.60589451731025" lon="12.2042010798564">
        <ele>933</ele>
        <time>2025-07-12T10:57:37.000Z</time>
      </trkpt>
      <trkpt lat="62.6058288256238" lon="12.20404023325759">
        <ele>932</ele>
        <time>2025-07-12T10:57:44.000Z</time>
      </trkpt>
      <trkpt lat="62.60562317375005" lon="12.20399666911769">
        <ele>931</ele>
        <time>2025-07-12T10:57:58.000Z</time>
      </trkpt>
      <trkpt lat="62.60542744014468" lon="12.20426444985791">
        <ele>931</ele>
        <time>2025-07-12T10:58:14.000Z</time>
      </trkpt>
      <trkpt lat="62.60512970429807" lon="12.20386855371024">
        <ele>930</ele>
        <time>2025-07-12T10:58:37.999Z</time>
      </trkpt>
      <trkpt lat="62.6047037099498" lon="12.2036119772576">
        <ele>928</ele>
        <time>2025-07-12T10:59:08.999Z</time>
      </trkpt>
      <trkpt lat="62.60439547103687" lon="12.2036015745206">
        <ele>927</ele>
        <time>2025-07-12T10:59:29.999Z</time>
      </trkpt>
      <trkpt lat="62.60418586061106" lon="12.20325967952424">
        <ele>926</ele>
        <time>2025-07-12T10:59:49.000Z</time>
      </trkpt>
      <trkpt lat="62.60388769684823" lon="12.20329103373275">
        <ele>925</ele>
        <time>2025-07-12T11:00:10.000Z</time>
      </trkpt>
      <trkpt lat="62.60357058610754" lon="12.20297408588085">
        <ele>923</ele>
        <time>2025-07-12T11:00:34.999Z</time>
      </trkpt>
      <trkpt lat="62.60341228461834" lon="12.20293741229575">
        <ele>923</ele>
        <time>2025-07-12T11:00:44.999Z</time>
      </trkpt>
      <trkpt lat="62.60325717201656" lon="12.20274188536889">
        <ele>922</ele>
        <time>2025-07-12T11:00:57.999Z</time>
      </trkpt>
      <trkpt lat="62.60281474734438" lon="12.20246692438062">
        <ele>920</ele>
        <time>2025-07-12T11:01:30.999Z</time>
      </trkpt>
      <trkpt lat="62.60256656948972" lon="12.20207986216464">
        <ele>919</ele>
        <time>2025-07-12T11:01:52.000Z</time>
      </trkpt>
      <trkpt lat="62.60246469900932" lon="12.20154537721305">
        <ele>918</ele>
        <time>2025-07-12T11:02:11.000Z</time>
      </trkpt>
      <trkpt lat="62.60242469236274" lon="12.20148839881559">
        <ele>918</ele>
        <time>2025-07-12T11:02:15.000Z</time>
      </trkpt>
      <trkpt lat="62.6022079171178" lon="12.19979557778617">
        <ele>914</ele>
        <time>2025-07-12T11:04:05.000Z</time>
      </trkpt>
      <trkpt lat="62.60211394342655" lon="12.19949646773561">
        <ele>913</ele>
        <time>2025-07-12T11:04:18.000Z</time>
      </trkpt>
      <trkpt lat="62.60212530927203" lon="12.19913207659227">
        <ele>912</ele>
        <time>2025-07-12T11:04:29.000Z</time>
      </trkpt>
      <trkpt lat="62.60206066125423" lon="12.19889187382889">
        <ele>911</ele>
        <time>2025-07-12T11:04:37.999Z</time>
      </trkpt>
      <trkpt lat="62.60148138192525" lon="12.19858276857968">
        <ele>909</ele>
        <time>2025-07-12T11:05:18.999Z</time>
      </trkpt>
      <trkpt lat="62.60125530253771" lon="12.19854557578739">
        <ele>908</ele>
        <time>2025-07-12T11:05:36.999Z</time>
      </trkpt>
      <trkpt lat="62.60127488997644" lon="12.19855071319278">
        <ele>908</ele>
        <time>2025-07-12T11:05:40.999Z</time>
      </trkpt>
      <trkpt lat="62.60118577439128" lon="12.19823879949692">
        <ele>907</ele>
        <time>2025-07-12T11:05:56.000Z</time>
      </trkpt>
      <trkpt lat="62.60115056774884" lon="12.19753966267068">
        <ele>906</ele>
        <time>2025-07-12T11:06:20.000Z</time>
      </trkpt>
      <trkpt lat="62.60101291116597" lon="12.19696955389743">
        <ele>904</ele>
        <time>2025-07-12T11:06:38.999Z</time>
      </trkpt>
      <trkpt lat="62.6009212414185" lon="12.19678348817805">
        <ele>904</ele>
        <time>2025-07-12T11:06:46.999Z</time>
      </trkpt>
      <trkpt lat="62.60087248641785" lon="12.19639074776154">
        <ele>902</ele>
        <time>2025-07-12T11:07:01.999Z</time>
      </trkpt>
      <trkpt lat="62.60055543638008" lon="12.19566519868945">
        <ele>898</ele>
        <time>2025-07-12T11:07:34.999Z</time>
      </trkpt>
      <trkpt lat="62.60053895290888" lon="12.19532390878789">
        <ele>897</ele>
        <time>2025-07-12T11:07:43.999Z</time>
      </trkpt>
      <trkpt lat="62.60073925865672" lon="12.19490736815247">
        <ele>896</ele>
        <time>2025-07-12T11:08:05.000Z</time>
      </trkpt>
      <trkpt lat="62.60079117247258" lon="12.19453253115086">
        <ele>893</ele>
        <time>2025-07-12T11:08:17.000Z</time>
      </trkpt>
      <trkpt lat="62.60075000053636" lon="12.1942442650132">
        <ele>891</ele>
        <time>2025-07-12T11:08:26.000Z</time>
      </trkpt>
      <trkpt lat="62.60075956389272" lon="12.19380066078358">
        <ele>889</ele>
        <time>2025-07-12T11:08:45.000Z</time>
      </trkpt>
      <trkpt lat="62.60071669288898" lon="12.19360309278293">
        <ele>888</ele>
        <time>2025-07-12T11:08:59.999Z</time>
      </trkpt>
      <trkpt lat="62.60043176789143" lon="12.1935135262918">
        <ele>886</ele>
        <time>2025-07-12T11:09:40.999Z</time>
      </trkpt>
      <trkpt lat="62.59992490092861" lon="12.19315822455845">
        <ele>882</ele>
        <time>2025-07-12T11:10:20.000Z</time>
      </trkpt>
      <trkpt lat="62.59898005320045" lon="12.19318635667677">
        <ele>875</ele>
        <time>2025-07-12T11:11:26.999Z</time>
      </trkpt>
      <trkpt lat="62.59845178863751" lon="12.19297000575918">
        <ele>870</ele>
        <time>2025-07-12T11:12:04.999Z</time>
      </trkpt>
      <trkpt lat="62.59755832570487" lon="12.19245388729211">
        <ele>862</ele>
        <time>2025-07-12T11:13:28.999Z</time>
      </trkpt>
      <trkpt lat="62.59735744482595" lon="12.19219880763009">
        <ele>860</ele>
        <time>2025-07-12T11:13:52.999Z</time>
      </trkpt>
      <trkpt lat="62.5970211534282" lon="12.1921122111068">
        <ele>857</ele>
        <time>2025-07-12T11:14:45.000Z</time>
      </trkpt>
      <trkpt lat="62.59655426219598" lon="12.19159256338613">
        <ele>852</ele>
        <time>2025-07-12T11:15:24.999Z</time>
      </trkpt>
      <trkpt lat="62.59618116843299" lon="12.19158254044869">
        <ele>850</ele>
        <time>2025-07-12T11:15:55.999Z</time>
      </trkpt>
      <trkpt lat="62.5958038605641" lon="12.19115495129605">
        <ele>846</ele>
        <time>2025-07-12T11:16:29.000Z</time>
      </trkpt>
      <trkpt lat="62.59565653598278" lon="12.19078608091986">
        <ele>843</ele>
        <time>2025-07-12T11:16:46.000Z</time>
      </trkpt>
      <trkpt lat="62.5955637565628" lon="12.18987388938021">
        <ele>839</ele>
        <time>2025-07-12T11:17:17.000Z</time>
      </trkpt>
      <trkpt lat="62.5955688136829" lon="12.18966051845973">
        <ele>838</ele>
        <time>2025-07-12T11:17:25.999Z</time>
      </trkpt>
      <trkpt lat="62.59568842420944" lon="12.18911959906121">
        <ele>837</ele>
        <time>2025-07-12T11:17:45.999Z</time>
      </trkpt>
      <trkpt lat="62.59597365804192" lon="12.18861931565775">
        <ele>837</ele>
        <time>2025-07-12T11:18:12.999Z</time>
      </trkpt>
      <trkpt lat="62.59616716987831" lon="12.18839656382979">
        <ele>837</ele>
        <time>2025-07-12T11:18:30.000Z</time>
      </trkpt>
      <trkpt lat="62.59623638050336" lon="12.18776551458595">
        <ele>836</ele>
        <time>2025-07-12T11:18:53.000Z</time>
      </trkpt>
      <trkpt lat="62.59595774508124" lon="12.18672199011167">
        <ele>832</ele>
        <time>2025-07-12T11:19:34.999Z</time>
      </trkpt>
      <trkpt lat="62.59565627380145" lon="12.18627736909061">
        <ele>827</ele>
        <time>2025-07-12T11:20:04.999Z</time>
      </trkpt>
      <trkpt lat="62.59536266392892" lon="12.18614725415609">
        <ele>824</ele>
        <time>2025-07-12T11:20:24.999Z</time>
      </trkpt>
      <trkpt lat="62.59513800321952" lon="12.18585485964516">
        <ele>821</ele>
        <time>2025-07-12T11:20:47.000Z</time>
      </trkpt>
      <trkpt lat="62.59507640493072" lon="12.1854294481891">
        <ele>818</ele>
        <time>2025-07-12T11:21:03.000Z</time>
      </trkpt>
      <trkpt lat="62.59509466538042" lon="12.18527566729751">
        <ele>817</ele>
        <time>2025-07-12T11:21:08.000Z</time>
      </trkpt>
      <trkpt lat="62.59534442489245" lon="12.18480489425914">
        <ele>817</ele>
        <time>2025-07-12T11:21:32.999Z</time>
      </trkpt>
      <trkpt lat="62.59556972042094" lon="12.18385211827001">
        <ele>813</ele>
        <time>2025-07-12T11:22:18.999Z</time>
      </trkpt>
    </trkseg>
  </trk>
</gpx>